<?xml version="1.0" encoding="UTF-8"?>
<gpx version="1.1" creator="2bulu-scraper" xmlns="http://www.topografix.com/GPX/1/1">
  <metadata><name>昭通鲁甸县</name><desc>source: 2bulu.com trackId=87265992; exported 2026-09-01T18:35:55.257Z</desc>
    <bounds minlat="27.2792422" minlon="103.2895331" maxlat="27.3037696" maxlon="103.3420689"/>
    <link href="https://www.2bulu.com/track/t-C0rWlp2494Xp%252FR2KBg5Tzw%253D%253D.htm"><text>2bulu 源页面</text></link>
  </metadata>
  <wpt lat="27.2829909" lon="103.3419495"><ele>2432</ele><name>k19+228
        </name></wpt>
  <wpt lat="27.2792904" lon="103.3400936"><ele>2407</ele><name>k19+779
        </name></wpt>
  <wpt lat="27.2794006" lon="103.3396225"><ele>2403</ele><name>k19+820
        </name></wpt>
  <wpt lat="27.2794927" lon="103.3391235"><ele>2409</ele><name>k19+880
        </name></wpt>
  <wpt lat="27.2802483" lon="103.3361758"><ele>2380</ele><name>K20+180
        </name></wpt>
  <wpt lat="27.2799633" lon="103.3338551"><ele>2363</ele><name>k20+444
        </name></wpt>
  <wpt lat="27.2797382" lon="103.3332496"><ele>2360</ele><name>k20+514
        </name></wpt>
  <wpt lat="27.2797256" lon="103.3331121"><ele>2356</ele><name>k20+522
        </name></wpt>
  <wpt lat="27.2806781" lon="103.3315726"><ele>2346</ele><name>K20+911
        </name></wpt>
  <wpt lat="27.2824855" lon="103.330797"><ele>2349</ele><name>k21+005
        </name></wpt>
  <wpt lat="27.2838916" lon="103.326675"><ele>2322</ele><name>k21+440
        </name></wpt>
  <wpt lat="27.2898477" lon="103.3215152"><ele>2260</ele><name>k22+329
        </name></wpt>
  <wpt lat="27.2851998" lon="103.3231876"><ele>2187</ele><name>k23+687
        </name></wpt>
  <wpt lat="27.2884562" lon="103.3177819"><ele>2139</ele><name>k24+544
        </name></wpt>
  <wpt lat="27.289326" lon="103.3165007"><ele>2126</ele><name>k24+704
        </name></wpt>
  <wpt lat="27.2902533" lon="103.3169319"><ele>2127</ele><name>k24+838
        </name></wpt>
  <wpt lat="27.2902922" lon="103.317121"><ele>2121</ele><name>24+853
        </name></wpt>
  <wpt lat="27.2912301" lon="103.3182488"><ele>2113</ele><name>k25+021
        </name></wpt>
  <wpt lat="27.2962988" lon="103.3232384"><ele>2070</ele><name>k25+960
        </name></wpt>
  <wpt lat="27.2994788" lon="103.3224899"><ele>2033</ele><name>k26+463
        </name></wpt>
  <wpt lat="27.3014342" lon="103.3222278"><ele>2025</ele><name>k26+789
        </name></wpt>
  <wpt lat="27.3020616" lon="103.3222144"><ele>2021</ele><name>k26+827
        </name></wpt>
  <wpt lat="27.299162" lon="103.3204611"><ele>1967</ele><name>27+538
        </name></wpt>
  <wpt lat="27.2987723" lon="103.3185106"><ele>1906</ele><name>28+303
        </name></wpt>
  <wpt lat="27.2977503" lon="103.318649"><ele>1899</ele><name>k28+373
        </name></wpt>
  <wpt lat="27.2978289" lon="103.3183796"><ele>1897</ele><name>k28+506
        </name></wpt>
  <wpt lat="27.2980781" lon="103.3183429"><ele>1893</ele><name>k28+529

        </name></wpt>
  <wpt lat="27.2984942" lon="103.3182627"><ele>1892</ele><name>k28+562
        </name></wpt>
  <wpt lat="27.2938997" lon="103.3115021"><ele>1838</ele><name>k29+496
        </name></wpt>
  <wpt lat="27.2912624" lon="103.3075382"><ele>1806</ele><name>k30+055
        </name></wpt>
  <wpt lat="27.2910913" lon="103.3074731"><ele>1808</ele><name>k30+081
        </name></wpt>
  <wpt lat="27.2881524" lon="103.3033539"><ele>1767</ele><name>30+585
        </name></wpt>
  <wpt lat="27.2874159" lon="103.3014131"><ele>1747</ele><name>k30+948
        </name></wpt>
  <wpt lat="27.2874837" lon="103.3023387"><ele>1741</ele><name>k30+710
        </name></wpt>
  <wpt lat="27.2874921" lon="103.3024328"><ele>1741</ele><name>k30+725
        </name></wpt>
  <wpt lat="27.2885144" lon="103.3093336"><ele>1727</ele><name>31+761
        </name></wpt>
  <wpt lat="27.2838261" lon="103.2938546"><ele>1622</ele><name>33+536
        </name></wpt>
  <wpt lat="27.2839816" lon="103.2939671"><ele>1619</ele><name>33+519
        </name></wpt>
  <wpt lat="27.2841118" lon="103.2942248"><ele>1625</ele><name>k33+490
        </name></wpt>
  <wpt lat="27.2845486" lon="103.2952019"><ele>1633</ele><name>33+389
        </name></wpt>
  <wpt lat="27.2850304" lon="103.296902"><ele>1636</ele><name>33+200
        </name></wpt>
  <wpt lat="27.2855308" lon="103.297953"><ele>1653</ele><name>k33+073
        </name></wpt>
  <wpt lat="27.28611" lon="103.2992745"><ele>1665</ele><name>k32+952
        </name></wpt>
  <wpt lat="27.2861198" lon="103.2993819"><ele>1668</ele><name>32+929
        </name></wpt>
  <wpt lat="27.2874028" lon="103.3077099"><ele>1712</ele><name>32+083
        </name></wpt>
  <trk><name>昭通鲁甸县</name>
      <trkseg>
        <trkpt lat="27.2829909" lon="103.3419495"><ele>2431.89</ele><time>2026-07-14T17:45:50.000Z</time></trkpt>
        <trkpt lat="27.2827588" lon="103.3419413"><ele>2431.89</ele><time>2026-07-14T17:47:51.000Z</time></trkpt>
        <trkpt lat="27.2825871" lon="103.3419213"><ele>2433.95</ele><time>2026-07-14T17:47:53.000Z</time></trkpt>
        <trkpt lat="27.2823953" lon="103.3419207"><ele>2433.85</ele><time>2026-07-14T17:47:55.000Z</time></trkpt>
        <trkpt lat="27.2821992" lon="103.3419224"><ele>2433</ele><time>2026-07-14T17:47:57.000Z</time></trkpt>
        <trkpt lat="27.2819868" lon="103.3419701"><ele>2432.45</ele><time>2026-07-14T17:47:59.000Z</time></trkpt>
        <trkpt lat="27.2817702" lon="103.342023"><ele>2431.32</ele><time>2026-07-14T17:48:01.000Z</time></trkpt>
        <trkpt lat="27.2815861" lon="103.3420593"><ele>2430.39</ele><time>2026-07-14T17:48:03.000Z</time></trkpt>
        <trkpt lat="27.2814265" lon="103.3420689"><ele>2428.95</ele><time>2026-07-14T17:48:05.000Z</time></trkpt>
        <trkpt lat="27.2812698" lon="103.3420579"><ele>2427.8</ele><time>2026-07-14T17:48:07.000Z</time></trkpt>
        <trkpt lat="27.2811047" lon="103.3420362"><ele>2426.63</ele><time>2026-07-14T17:48:09.000Z</time></trkpt>
        <trkpt lat="27.280962" lon="103.3420037"><ele>2424.97</ele><time>2026-07-14T17:48:11.000Z</time></trkpt>
        <trkpt lat="27.2808203" lon="103.3419385"><ele>2423.81</ele><time>2026-07-14T17:48:15.000Z</time></trkpt>
        <trkpt lat="27.2807133" lon="103.3418737"><ele>2421.8</ele><time>2026-07-14T17:48:17.000Z</time></trkpt>
        <trkpt lat="27.2806018" lon="103.3417917"><ele>2420.52</ele><time>2026-07-14T17:48:19.000Z</time></trkpt>
        <trkpt lat="27.2804731" lon="103.3416943"><ele>2419.67</ele><time>2026-07-14T17:48:21.000Z</time></trkpt>
        <trkpt lat="27.2803296" lon="103.341581"><ele>2418.9</ele><time>2026-07-14T17:48:23.000Z</time></trkpt>
        <trkpt lat="27.2801872" lon="103.3414416"><ele>2418.29</ele><time>2026-07-14T17:48:25.000Z</time></trkpt>
        <trkpt lat="27.280044" lon="103.3412856"><ele>2417.08</ele><time>2026-07-14T17:48:27.000Z</time></trkpt>
        <trkpt lat="27.2798877" lon="103.341136"><ele>2415.93</ele><time>2026-07-14T17:48:29.000Z</time></trkpt>
        <trkpt lat="27.2797075" lon="103.3409979"><ele>2415.24</ele><time>2026-07-14T17:48:31.000Z</time></trkpt>
        <trkpt lat="27.2795257" lon="103.3408753"><ele>2413.87</ele><time>2026-07-14T17:48:33.000Z</time></trkpt>
        <trkpt lat="27.2793758" lon="103.3407285"><ele>2412.6</ele><time>2026-07-14T17:48:35.000Z</time></trkpt>
        <trkpt lat="27.2792784" lon="103.3405422"><ele>2411.45</ele><time>2026-07-14T17:48:37.000Z</time></trkpt>
        <trkpt lat="27.2792422" lon="103.3403194"><ele>2410.49</ele><time>2026-07-14T17:48:39.000Z</time></trkpt>
        <trkpt lat="27.2792652" lon="103.3401609"><ele>2409.3</ele><time>2026-07-14T17:48:41.000Z</time></trkpt>
        <trkpt lat="27.2792904" lon="103.3400936"><ele>2407.88</ele><time>2026-07-14T17:48:45.000Z</time></trkpt>
        <trkpt lat="27.2793213" lon="103.3400061"><ele>2407.31</ele><time>2026-07-14T17:50:09.000Z</time></trkpt>
        <trkpt lat="27.2793472" lon="103.3399013"><ele>2404.39</ele><time>2026-07-14T17:50:17.000Z</time></trkpt>
        <trkpt lat="27.2793747" lon="103.3397867"><ele>2403.19</ele><time>2026-07-14T17:51:01.000Z</time></trkpt>
        <trkpt lat="27.279394" lon="103.3396686"><ele>2403.08</ele><time>2026-07-14T17:51:11.000Z</time></trkpt>
        <trkpt lat="27.2794006" lon="103.3396225"><ele>2402.98</ele><time>2026-07-14T17:51:15.000Z</time></trkpt>
        <trkpt lat="27.2794147" lon="103.3395357"><ele>2402.84</ele><time>2026-07-14T17:52:08.000Z</time></trkpt>
        <trkpt lat="27.2794142" lon="103.3395926"><ele>2402.84</ele><time>2026-07-14T17:52:20.000Z</time></trkpt>
        <trkpt lat="27.2794036" lon="103.3395451"><ele>2403.03</ele><time>2026-07-14T17:52:46.000Z</time></trkpt>
        <trkpt lat="27.2794069" lon="103.3396425"><ele>2403.09</ele><time>2026-07-14T17:54:30.000Z</time></trkpt>
        <trkpt lat="27.2793772" lon="103.3395371"><ele>2401.91</ele><time>2026-07-14T17:55:22.000Z</time></trkpt>
        <trkpt lat="27.2793853" lon="103.3394312"><ele>2401.38</ele><time>2026-07-14T17:55:32.000Z</time></trkpt>
        <trkpt lat="27.2794412" lon="103.3395247"><ele>2398.65</ele><time>2026-07-14T17:57:04.000Z</time></trkpt>
        <trkpt lat="27.2794357" lon="103.3394158"><ele>2399.42</ele><time>2026-07-14T17:58:50.000Z</time></trkpt>
        <trkpt lat="27.2794444" lon="103.3393016"><ele>2401.54</ele><time>2026-07-14T17:58:58.000Z</time></trkpt>
        <trkpt lat="27.2794647" lon="103.3391979"><ele>2404.09</ele><time>2026-07-14T17:59:06.000Z</time></trkpt>
        <trkpt lat="27.2794927" lon="103.3391235"><ele>2404.04</ele><time>2026-07-14T17:59:16.000Z</time></trkpt>
        <trkpt lat="27.279538" lon="103.3389667"><ele>2406.31</ele><time>2026-07-14T18:00:54.000Z</time></trkpt>
        <trkpt lat="27.2796245" lon="103.3387922"><ele>2403.32</ele><time>2026-07-14T18:00:58.000Z</time></trkpt>
        <trkpt lat="27.2796547" lon="103.3386716"><ele>2401.1</ele><time>2026-07-14T18:01:00.000Z</time></trkpt>
        <trkpt lat="27.2796708" lon="103.3385451"><ele>2399.72</ele><time>2026-07-14T18:01:02.000Z</time></trkpt>
        <trkpt lat="27.2796835" lon="103.3384349"><ele>2398.81</ele><time>2026-07-14T18:01:04.000Z</time></trkpt>
        <trkpt lat="27.2797109" lon="103.33831"><ele>2398.12</ele><time>2026-07-14T18:01:08.000Z</time></trkpt>
        <trkpt lat="27.2797474" lon="103.3381384"><ele>2396.8</ele><time>2026-07-14T18:01:12.000Z</time></trkpt>
        <trkpt lat="27.2797884" lon="103.337995"><ele>2394.9</ele><time>2026-07-14T18:01:14.000Z</time></trkpt>
        <trkpt lat="27.2798298" lon="103.3378446"><ele>2393.66</ele><time>2026-07-14T18:01:16.000Z</time></trkpt>
        <trkpt lat="27.279887" lon="103.337675"><ele>2392.27</ele><time>2026-07-14T18:01:18.000Z</time></trkpt>
        <trkpt lat="27.2799461" lon="103.3374863"><ele>2390.31</ele><time>2026-07-14T18:01:20.000Z</time></trkpt>
        <trkpt lat="27.2800075" lon="103.3372998"><ele>2389.06</ele><time>2026-07-14T18:01:22.000Z</time></trkpt>
        <trkpt lat="27.2800619" lon="103.3371682"><ele>2387.87</ele><time>2026-07-14T18:01:24.000Z</time></trkpt>
        <trkpt lat="27.2800832" lon="103.3371136"><ele>2386.92</ele><time>2026-07-14T18:01:28.000Z</time></trkpt>
        <trkpt lat="27.2801365" lon="103.3370162"><ele>2386.46</ele><time>2026-07-14T18:01:34.000Z</time></trkpt>
        <trkpt lat="27.280182" lon="103.3369163"><ele>2385.96</ele><time>2026-07-14T18:01:36.000Z</time></trkpt>
        <trkpt lat="27.280231" lon="103.3367884"><ele>2385.74</ele><time>2026-07-14T18:01:38.000Z</time></trkpt>
        <trkpt lat="27.2802658" lon="103.3366236"><ele>2384.7</ele><time>2026-07-14T18:01:40.000Z</time></trkpt>
        <trkpt lat="27.2802665" lon="103.3364456"><ele>2383.57</ele><time>2026-07-14T18:01:42.000Z</time></trkpt>
        <trkpt lat="27.2802531" lon="103.3362826"><ele>2382.97</ele><time>2026-07-14T18:01:44.000Z</time></trkpt>
        <trkpt lat="27.2802483" lon="103.3361758"><ele>2381.96</ele><time>2026-07-14T18:01:50.000Z</time></trkpt>
        <trkpt lat="27.2802168" lon="103.3362996"><ele>2381.29</ele><time>2026-07-14T18:03:26.000Z</time></trkpt>
        <trkpt lat="27.2802592" lon="103.3361981"><ele>2379.93</ele><time>2026-07-14T18:04:08.000Z</time></trkpt>
        <trkpt lat="27.2802338" lon="103.3360132"><ele>2378.88</ele><time>2026-07-14T18:04:22.000Z</time></trkpt>
        <trkpt lat="27.280211" lon="103.3358493"><ele>2377.67</ele><time>2026-07-14T18:04:24.000Z</time></trkpt>
        <trkpt lat="27.2801863" lon="103.3356706"><ele>2376.67</ele><time>2026-07-14T18:04:26.000Z</time></trkpt>
        <trkpt lat="27.2801596" lon="103.335487"><ele>2375.74</ele><time>2026-07-14T18:04:28.000Z</time></trkpt>
        <trkpt lat="27.280129" lon="103.3353128"><ele>2375.09</ele><time>2026-07-14T18:04:30.000Z</time></trkpt>
        <trkpt lat="27.2801016" lon="103.3351109"><ele>2375.39</ele><time>2026-07-14T18:04:32.000Z</time></trkpt>
        <trkpt lat="27.2801027" lon="103.3348868"><ele>2374.93</ele><time>2026-07-14T18:04:34.000Z</time></trkpt>
        <trkpt lat="27.2801103" lon="103.3346752"><ele>2374.32</ele><time>2026-07-14T18:04:36.000Z</time></trkpt>
        <trkpt lat="27.2800972" lon="103.334478"><ele>2372.36</ele><time>2026-07-14T18:04:38.000Z</time></trkpt>
        <trkpt lat="27.2800608" lon="103.3342982"><ele>2371.46</ele><time>2026-07-14T18:04:40.000Z</time></trkpt>
        <trkpt lat="27.2800212" lon="103.3341463"><ele>2369.85</ele><time>2026-07-14T18:04:42.000Z</time></trkpt>
        <trkpt lat="27.2799855" lon="103.3340177"><ele>2368.14</ele><time>2026-07-14T18:04:44.000Z</time></trkpt>
        <trkpt lat="27.2799446" lon="103.3338833"><ele>2366.5</ele><time>2026-07-14T18:04:48.000Z</time></trkpt>
        <trkpt lat="27.2799633" lon="103.3338551"><ele>2365.34</ele><time>2026-07-14T18:04:56.000Z</time></trkpt>
        <trkpt lat="27.2799214" lon="103.3337909"><ele>2364.3</ele><time>2026-07-14T18:06:29.000Z</time></trkpt>
        <trkpt lat="27.2798866" lon="103.333687"><ele>2362.66</ele><time>2026-07-14T18:06:37.000Z</time></trkpt>
        <trkpt lat="27.279845" lon="103.3335915"><ele>2361.11</ele><time>2026-07-14T18:06:47.000Z</time></trkpt>
        <trkpt lat="27.2798156" lon="103.3334862"><ele>2360.32</ele><time>2026-07-14T18:06:57.000Z</time></trkpt>
        <trkpt lat="27.2798025" lon="103.3334268"><ele>2359.44</ele><time>2026-07-14T18:07:03.000Z</time></trkpt>
        <trkpt lat="27.2797745" lon="103.3333457"><ele>2358.4</ele><time>2026-07-14T18:07:37.000Z</time></trkpt>
        <trkpt lat="27.2797382" lon="103.3332496"><ele>2358.85</ele><time>2026-07-14T18:07:47.000Z</time></trkpt>
        <trkpt lat="27.2797272" lon="103.3331382"><ele>2359.3</ele><time>2026-07-14T18:08:32.000Z</time></trkpt>
        <trkpt lat="27.2797256" lon="103.3331121"><ele>2358.18</ele><time>2026-07-14T18:08:36.000Z</time></trkpt>
        <trkpt lat="27.2797569" lon="103.3330302"><ele>2357.3</ele><time>2026-07-14T18:10:15.000Z</time></trkpt>
        <trkpt lat="27.2797661" lon="103.3329167"><ele>2356.49</ele><time>2026-07-14T18:10:23.000Z</time></trkpt>
        <trkpt lat="27.2797744" lon="103.3328735"><ele>2354.9</ele><time>2026-07-14T18:10:29.000Z</time></trkpt>
        <trkpt lat="27.2798017" lon="103.3327926"><ele>2353.66</ele><time>2026-07-14T18:10:53.000Z</time></trkpt>
        <trkpt lat="27.2798402" lon="103.3326966"><ele>2351.93</ele><time>2026-07-14T18:11:01.000Z</time></trkpt>
        <trkpt lat="27.2798693" lon="103.3325799"><ele>2352</ele><time>2026-07-14T18:11:11.000Z</time></trkpt>
        <trkpt lat="27.2799025" lon="103.3324764"><ele>2352.44</ele><time>2026-07-14T18:11:21.000Z</time></trkpt>
        <trkpt lat="27.2799018" lon="103.332439"><ele>2352.85</ele><time>2026-07-14T18:11:27.000Z</time></trkpt>
        <trkpt lat="27.279931" lon="103.3323563"><ele>2352.9</ele><time>2026-07-14T18:11:37.000Z</time></trkpt>
        <trkpt lat="27.279983" lon="103.3322602"><ele>2353.04</ele><time>2026-07-14T18:11:47.000Z</time></trkpt>
        <trkpt lat="27.2800472" lon="103.3321786"><ele>2352.96</ele><time>2026-07-14T18:11:55.000Z</time></trkpt>
        <trkpt lat="27.2801156" lon="103.3320912"><ele>2353.12</ele><time>2026-07-14T18:12:05.000Z</time></trkpt>
        <trkpt lat="27.2801926" lon="103.3320031"><ele>2353.14</ele><time>2026-07-14T18:12:15.000Z</time></trkpt>
        <trkpt lat="27.2802749" lon="103.3319144"><ele>2353.75</ele><time>2026-07-14T18:12:25.000Z</time></trkpt>
        <trkpt lat="27.2803546" lon="103.3318267"><ele>2353.72</ele><time>2026-07-14T18:12:35.000Z</time></trkpt>
        <trkpt lat="27.2804351" lon="103.3317397"><ele>2353.81</ele><time>2026-07-14T18:12:45.000Z</time></trkpt>
        <trkpt lat="27.2805203" lon="103.3316699"><ele>2353.1</ele><time>2026-07-14T18:12:57.000Z</time></trkpt>
        <trkpt lat="27.280612" lon="103.3316145"><ele>2350.66</ele><time>2026-07-14T18:13:07.000Z</time></trkpt>
        <trkpt lat="27.2806781" lon="103.3315726"><ele>2348.76</ele><time>2026-07-14T18:13:15.000Z</time></trkpt>
        <trkpt lat="27.2807351" lon="103.3315094"><ele>2347.51</ele><time>2026-07-14T18:15:28.000Z</time></trkpt>
        <trkpt lat="27.2808315" lon="103.3314696"><ele>2347.38</ele><time>2026-07-14T18:15:44.000Z</time></trkpt>
        <trkpt lat="27.2808726" lon="103.3314409"><ele>2347.71</ele><time>2026-07-14T18:15:48.000Z</time></trkpt>
        <trkpt lat="27.2809531" lon="103.331418"><ele>2348.17</ele><time>2026-07-14T18:16:00.000Z</time></trkpt>
        <trkpt lat="27.2810491" lon="103.3314266"><ele>2346.79</ele><time>2026-07-14T18:16:16.000Z</time></trkpt>
        <trkpt lat="27.2811553" lon="103.3314339"><ele>2346.4</ele><time>2026-07-14T18:16:30.000Z</time></trkpt>
        <trkpt lat="27.2812302" lon="103.3314371"><ele>2346.94</ele><time>2026-07-14T18:16:38.000Z</time></trkpt>
        <trkpt lat="27.2813148" lon="103.3314445"><ele>2346.72</ele><time>2026-07-14T18:16:56.000Z</time></trkpt>
        <trkpt lat="27.2814102" lon="103.3314302"><ele>2347.42</ele><time>2026-07-14T18:17:06.000Z</time></trkpt>
        <trkpt lat="27.2814907" lon="103.3313758"><ele>2347.99</ele><time>2026-07-14T18:17:48.000Z</time></trkpt>
        <trkpt lat="27.2815305" lon="103.3313226"><ele>2348.49</ele><time>2026-07-14T18:17:56.000Z</time></trkpt>
        <trkpt lat="27.2816086" lon="103.331321"><ele>2347.1</ele><time>2026-07-14T18:18:16.000Z</time></trkpt>
        <trkpt lat="27.2817016" lon="103.331305"><ele>2346.36</ele><time>2026-07-14T18:18:28.000Z</time></trkpt>
        <trkpt lat="27.281785" lon="103.3312463"><ele>2345.43</ele><time>2026-07-14T18:18:38.000Z</time></trkpt>
        <trkpt lat="27.2818737" lon="103.3312332"><ele>2345.5</ele><time>2026-07-14T18:18:46.000Z</time></trkpt>
        <trkpt lat="27.2819493" lon="103.3311844"><ele>2345.36</ele><time>2026-07-14T18:19:00.000Z</time></trkpt>
        <trkpt lat="27.2820408" lon="103.3311232"><ele>2345.74</ele><time>2026-07-14T18:19:18.000Z</time></trkpt>
        <trkpt lat="27.2821241" lon="103.3310673"><ele>2346.7</ele><time>2026-07-14T18:19:20.000Z</time></trkpt>
        <trkpt lat="27.2822153" lon="103.3310065"><ele>2347.84</ele><time>2026-07-14T18:19:22.000Z</time></trkpt>
        <trkpt lat="27.282301" lon="103.3309536"><ele>2348.39</ele><time>2026-07-14T18:19:24.000Z</time></trkpt>
        <trkpt lat="27.2824185" lon="103.3308699"><ele>2348.66</ele><time>2026-07-14T18:19:28.000Z</time></trkpt>
        <trkpt lat="27.2825191" lon="103.3307881"><ele>2348.51</ele><time>2026-07-14T18:19:30.000Z</time></trkpt>
        <trkpt lat="27.2825898" lon="103.3307476"><ele>2348.1</ele><time>2026-07-14T18:19:34.000Z</time></trkpt>
        <trkpt lat="27.2825277" lon="103.3307747"><ele>2347.84</ele><time>2026-07-14T18:19:54.000Z</time></trkpt>
        <trkpt lat="27.2824855" lon="103.330797"><ele>2348.37</ele><time>2026-07-14T18:19:56.000Z</time></trkpt>
        <trkpt lat="27.2825639" lon="103.3307743"><ele>2348.45</ele><time>2026-07-14T18:22:05.000Z</time></trkpt>
        <trkpt lat="27.2825763" lon="103.330776"><ele>2347.94</ele><time>2026-07-14T18:22:09.000Z</time></trkpt>
        <trkpt lat="27.2826948" lon="103.3306398"><ele>2347.59</ele><time>2026-07-14T18:22:21.000Z</time></trkpt>
        <trkpt lat="27.2827876" lon="103.3305334"><ele>2345.82</ele><time>2026-07-14T18:22:23.000Z</time></trkpt>
        <trkpt lat="27.2828727" lon="103.330425"><ele>2344.88</ele><time>2026-07-14T18:22:25.000Z</time></trkpt>
        <trkpt lat="27.2829395" lon="103.3303026"><ele>2343.58</ele><time>2026-07-14T18:22:27.000Z</time></trkpt>
        <trkpt lat="27.2829946" lon="103.3301677"><ele>2342.77</ele><time>2026-07-14T18:22:29.000Z</time></trkpt>
        <trkpt lat="27.2830327" lon="103.3300186"><ele>2341.93</ele><time>2026-07-14T18:22:31.000Z</time></trkpt>
        <trkpt lat="27.283047" lon="103.3298471"><ele>2341.64</ele><time>2026-07-14T18:22:33.000Z</time></trkpt>
        <trkpt lat="27.2830466" lon="103.329677"><ele>2341.24</ele><time>2026-07-14T18:22:35.000Z</time></trkpt>
        <trkpt lat="27.2830474" lon="103.3294888"><ele>2341.42</ele><time>2026-07-14T18:22:37.000Z</time></trkpt>
        <trkpt lat="27.2830633" lon="103.3292965"><ele>2341.52</ele><time>2026-07-14T18:22:39.000Z</time></trkpt>
        <trkpt lat="27.2830958" lon="103.3291235"><ele>2341.33</ele><time>2026-07-14T18:22:41.000Z</time></trkpt>
        <trkpt lat="27.2831221" lon="103.3289889"><ele>2340.9</ele><time>2026-07-14T18:22:43.000Z</time></trkpt>
        <trkpt lat="27.283141" lon="103.3287814"><ele>2341.09</ele><time>2026-07-14T18:22:47.000Z</time></trkpt>
        <trkpt lat="27.2831264" lon="103.3285965"><ele>2340.64</ele><time>2026-07-14T18:22:49.000Z</time></trkpt>
        <trkpt lat="27.2830967" lon="103.3284027"><ele>2340.06</ele><time>2026-07-14T18:22:51.000Z</time></trkpt>
        <trkpt lat="27.283088" lon="103.3281972"><ele>2338.76</ele><time>2026-07-14T18:22:53.000Z</time></trkpt>
        <trkpt lat="27.2831091" lon="103.3280004"><ele>2337.53</ele><time>2026-07-14T18:22:55.000Z</time></trkpt>
        <trkpt lat="27.2831486" lon="103.32782"><ele>2335.95</ele><time>2026-07-14T18:22:57.000Z</time></trkpt>
        <trkpt lat="27.2832281" lon="103.3276555"><ele>2334.89</ele><time>2026-07-14T18:22:59.000Z</time></trkpt>
        <trkpt lat="27.2833166" lon="103.3274845"><ele>2333.69</ele><time>2026-07-14T18:23:01.000Z</time></trkpt>
        <trkpt lat="27.2834123" lon="103.3273074"><ele>2332.02</ele><time>2026-07-14T18:23:03.000Z</time></trkpt>
        <trkpt lat="27.2835287" lon="103.3271327"><ele>2330.5</ele><time>2026-07-14T18:23:05.000Z</time></trkpt>
        <trkpt lat="27.283656" lon="103.3269654"><ele>2329.11</ele><time>2026-07-14T18:23:07.000Z</time></trkpt>
        <trkpt lat="27.283763" lon="103.32685"><ele>2327.71</ele><time>2026-07-14T18:23:09.000Z</time></trkpt>
        <trkpt lat="27.283813" lon="103.3267975"><ele>2326.88</ele><time>2026-07-14T18:23:13.000Z</time></trkpt>
        <trkpt lat="27.2838701" lon="103.3267275"><ele>2325.97</ele><time>2026-07-14T18:23:39.000Z</time></trkpt>
        <trkpt lat="27.2839307" lon="103.3266533"><ele>2324.47</ele><time>2026-07-14T18:23:51.000Z</time></trkpt>
        <trkpt lat="27.2839564" lon="103.3266349"><ele>2323.38</ele><time>2026-07-14T18:23:55.000Z</time></trkpt>
        <trkpt lat="27.2838916" lon="103.326675"><ele>2322.4</ele><time>2026-07-14T18:24:09.000Z</time></trkpt>
        <trkpt lat="27.2838132" lon="103.3267179"><ele>2322.14</ele><time>2026-07-14T18:24:19.000Z</time></trkpt>
        <trkpt lat="27.2838782" lon="103.3267555"><ele>2322.58</ele><time>2026-07-14T18:25:22.000Z</time></trkpt>
        <trkpt lat="27.2838354" lon="103.3268525"><ele>2321.81</ele><time>2026-07-14T18:26:12.000Z</time></trkpt>
        <trkpt lat="27.2839019" lon="103.3267287"><ele>2320.71</ele><time>2026-07-14T18:26:28.000Z</time></trkpt>
        <trkpt lat="27.2839783" lon="103.3266304"><ele>2321.64</ele><time>2026-07-14T18:26:30.000Z</time></trkpt>
        <trkpt lat="27.2840655" lon="103.3265149"><ele>2321.96</ele><time>2026-07-14T18:26:32.000Z</time></trkpt>
        <trkpt lat="27.2841689" lon="103.3264431"><ele>2322.5</ele><time>2026-07-14T18:26:34.000Z</time></trkpt>
        <trkpt lat="27.2842927" lon="103.3264016"><ele>2321.27</ele><time>2026-07-14T18:26:36.000Z</time></trkpt>
        <trkpt lat="27.2844387" lon="103.3263867"><ele>2320.07</ele><time>2026-07-14T18:26:38.000Z</time></trkpt>
        <trkpt lat="27.284564" lon="103.3263864"><ele>2317.87</ele><time>2026-07-14T18:26:42.000Z</time></trkpt>
        <trkpt lat="27.2847031" lon="103.3263874"><ele>2316.36</ele><time>2026-07-14T18:27:44.000Z</time></trkpt>
        <trkpt lat="27.284804" lon="103.3263337"><ele>2314.05</ele><time>2026-07-14T18:27:46.000Z</time></trkpt>
        <trkpt lat="27.2849179" lon="103.3262662"><ele>2312.75</ele><time>2026-07-14T18:27:48.000Z</time></trkpt>
        <trkpt lat="27.2850472" lon="103.3261824"><ele>2311.73</ele><time>2026-07-14T18:27:50.000Z</time></trkpt>
        <trkpt lat="27.2851871" lon="103.3260742"><ele>2310.67</ele><time>2026-07-14T18:27:52.000Z</time></trkpt>
        <trkpt lat="27.2853429" lon="103.3259613"><ele>2309.25</ele><time>2026-07-14T18:27:54.000Z</time></trkpt>
        <trkpt lat="27.285515" lon="103.3258491"><ele>2308.03</ele><time>2026-07-14T18:27:56.000Z</time></trkpt>
        <trkpt lat="27.2857027" lon="103.3257504"><ele>2306.5</ele><time>2026-07-14T18:27:58.000Z</time></trkpt>
        <trkpt lat="27.2858964" lon="103.3256581"><ele>2305.07</ele><time>2026-07-14T18:28:00.000Z</time></trkpt>
        <trkpt lat="27.2860859" lon="103.3255497"><ele>2303.76</ele><time>2026-07-14T18:28:02.000Z</time></trkpt>
        <trkpt lat="27.2862718" lon="103.3254367"><ele>2302.13</ele><time>2026-07-14T18:28:04.000Z</time></trkpt>
        <trkpt lat="27.2864548" lon="103.3253248"><ele>2300.62</ele><time>2026-07-14T18:28:06.000Z</time></trkpt>
        <trkpt lat="27.2866296" lon="103.3251859"><ele>2299.18</ele><time>2026-07-14T18:28:08.000Z</time></trkpt>
        <trkpt lat="27.2867879" lon="103.3250144"><ele>2297.64</ele><time>2026-07-14T18:28:10.000Z</time></trkpt>
        <trkpt lat="27.2869554" lon="103.3248362"><ele>2296.94</ele><time>2026-07-14T18:28:12.000Z</time></trkpt>
        <trkpt lat="27.2871238" lon="103.324673"><ele>2295.27</ele><time>2026-07-14T18:28:14.000Z</time></trkpt>
        <trkpt lat="27.2872946" lon="103.3245198"><ele>2294.03</ele><time>2026-07-14T18:28:16.000Z</time></trkpt>
        <trkpt lat="27.2874504" lon="103.3243845"><ele>2293.19</ele><time>2026-07-14T18:28:18.000Z</time></trkpt>
        <trkpt lat="27.2876263" lon="103.3242922"><ele>2292.69</ele><time>2026-07-14T18:28:20.000Z</time></trkpt>
        <trkpt lat="27.2877956" lon="103.3241712"><ele>2291.04</ele><time>2026-07-14T18:28:22.000Z</time></trkpt>
        <trkpt lat="27.2879461" lon="103.3240107"><ele>2289.16</ele><time>2026-07-14T18:28:24.000Z</time></trkpt>
        <trkpt lat="27.2881164" lon="103.3238487"><ele>2286.9</ele><time>2026-07-14T18:28:26.000Z</time></trkpt>
        <trkpt lat="27.2883143" lon="103.3236963"><ele>2284.76</ele><time>2026-07-14T18:28:28.000Z</time></trkpt>
        <trkpt lat="27.2885353" lon="103.3235455"><ele>2282.5</ele><time>2026-07-14T18:28:30.000Z</time></trkpt>
        <trkpt lat="27.2887727" lon="103.3233965"><ele>2280.06</ele><time>2026-07-14T18:28:32.000Z</time></trkpt>
        <trkpt lat="27.2890098" lon="103.3232485"><ele>2277.77</ele><time>2026-07-14T18:28:34.000Z</time></trkpt>
        <trkpt lat="27.2892341" lon="103.3231062"><ele>2275.85</ele><time>2026-07-14T18:28:36.000Z</time></trkpt>
        <trkpt lat="27.2894378" lon="103.322958"><ele>2273.79</ele><time>2026-07-14T18:28:38.000Z</time></trkpt>
        <trkpt lat="27.2896084" lon="103.3227879"><ele>2271.82</ele><time>2026-07-14T18:28:40.000Z</time></trkpt>
        <trkpt lat="27.2897418" lon="103.322596"><ele>2270.33</ele><time>2026-07-14T18:28:42.000Z</time></trkpt>
        <trkpt lat="27.2898346" lon="103.3223762"><ele>2269.26</ele><time>2026-07-14T18:28:44.000Z</time></trkpt>
        <trkpt lat="27.2898859" lon="103.3221291"><ele>2268.01</ele><time>2026-07-14T18:28:46.000Z</time></trkpt>
        <trkpt lat="27.2898995" lon="103.3218736"><ele>2266.51</ele><time>2026-07-14T18:28:48.000Z</time></trkpt>
        <trkpt lat="27.2898884" lon="103.3216837"><ele>2265.29</ele><time>2026-07-14T18:28:50.000Z</time></trkpt>
        <trkpt lat="27.2898807" lon="103.3215812"><ele>2264.33</ele><time>2026-07-14T18:28:54.000Z</time></trkpt>
        <trkpt lat="27.2898477" lon="103.3215152"><ele>2264.15</ele><time>2026-07-14T18:30:04.000Z</time></trkpt>
        <trkpt lat="27.2898543" lon="103.321619"><ele>2262.31</ele><time>2026-07-14T18:31:01.000Z</time></trkpt>
        <trkpt lat="27.2898424" lon="103.3215467"><ele>2262.81</ele><time>2026-07-14T18:31:19.000Z</time></trkpt>
        <trkpt lat="27.2898675" lon="103.3214426"><ele>2262.92</ele><time>2026-07-14T18:31:59.000Z</time></trkpt>
        <trkpt lat="27.2898846" lon="103.3213022"><ele>2262.38</ele><time>2026-07-14T18:32:45.000Z</time></trkpt>
        <trkpt lat="27.28988" lon="103.3211677"><ele>2261.15</ele><time>2026-07-14T18:32:47.000Z</time></trkpt>
        <trkpt lat="27.2898797" lon="103.3210308"><ele>2260.76</ele><time>2026-07-14T18:32:49.000Z</time></trkpt>
        <trkpt lat="27.2898878" lon="103.3208902"><ele>2260.88</ele><time>2026-07-14T18:32:51.000Z</time></trkpt>
        <trkpt lat="27.2898947" lon="103.32076"><ele>2259.88</ele><time>2026-07-14T18:32:53.000Z</time></trkpt>
        <trkpt lat="27.2899042" lon="103.3205811"><ele>2258.02</ele><time>2026-07-14T18:32:57.000Z</time></trkpt>
        <trkpt lat="27.2898992" lon="103.3203987"><ele>2255.86</ele><time>2026-07-14T18:33:01.000Z</time></trkpt>
        <trkpt lat="27.2897947" lon="103.3202505"><ele>2254.22</ele><time>2026-07-14T18:33:05.000Z</time></trkpt>
        <trkpt lat="27.2896672" lon="103.3202255"><ele>2253.01</ele><time>2026-07-14T18:33:07.000Z</time></trkpt>
        <trkpt lat="27.2895493" lon="103.3203071"><ele>2251.72</ele><time>2026-07-14T18:33:09.000Z</time></trkpt>
        <trkpt lat="27.2894862" lon="103.3204679"><ele>2251.09</ele><time>2026-07-14T18:33:11.000Z</time></trkpt>
        <trkpt lat="27.2894703" lon="103.3206665"><ele>2250.21</ele><time>2026-07-14T18:33:13.000Z</time></trkpt>
        <trkpt lat="27.2894714" lon="103.3208867"><ele>2249.29</ele><time>2026-07-14T18:33:15.000Z</time></trkpt>
        <trkpt lat="27.2894782" lon="103.3211109"><ele>2248.38</ele><time>2026-07-14T18:33:17.000Z</time></trkpt>
        <trkpt lat="27.2894764" lon="103.3213433"><ele>2247.28</ele><time>2026-07-14T18:33:19.000Z</time></trkpt>
        <trkpt lat="27.2894709" lon="103.3215825"><ele>2245.99</ele><time>2026-07-14T18:33:21.000Z</time></trkpt>
        <trkpt lat="27.2894425" lon="103.3218136"><ele>2244.61</ele><time>2026-07-14T18:33:23.000Z</time></trkpt>
        <trkpt lat="27.2893753" lon="103.3220324"><ele>2243.2</ele><time>2026-07-14T18:33:25.000Z</time></trkpt>
        <trkpt lat="27.2892645" lon="103.3222222"><ele>2241.8</ele><time>2026-07-14T18:33:27.000Z</time></trkpt>
        <trkpt lat="27.2891192" lon="103.322379"><ele>2241.01</ele><time>2026-07-14T18:33:29.000Z</time></trkpt>
        <trkpt lat="27.2889525" lon="103.3225069"><ele>2240.26</ele><time>2026-07-14T18:33:31.000Z</time></trkpt>
        <trkpt lat="27.2887812" lon="103.3226312"><ele>2239.44</ele><time>2026-07-14T18:33:33.000Z</time></trkpt>
        <trkpt lat="27.2886083" lon="103.3227507"><ele>2238.37</ele><time>2026-07-14T18:33:35.000Z</time></trkpt>
        <trkpt lat="27.288443" lon="103.3228603"><ele>2237.08</ele><time>2026-07-14T18:33:37.000Z</time></trkpt>
        <trkpt lat="27.2882862" lon="103.3229666"><ele>2235.91</ele><time>2026-07-14T18:33:39.000Z</time></trkpt>
        <trkpt lat="27.2881428" lon="103.3230759"><ele>2234.54</ele><time>2026-07-14T18:33:41.000Z</time></trkpt>
        <trkpt lat="27.2880036" lon="103.3231738"><ele>2232.79</ele><time>2026-07-14T18:33:43.000Z</time></trkpt>
        <trkpt lat="27.2878587" lon="103.3232542"><ele>2231.37</ele><time>2026-07-14T18:33:45.000Z</time></trkpt>
        <trkpt lat="27.2877073" lon="103.3233079"><ele>2230.23</ele><time>2026-07-14T18:33:47.000Z</time></trkpt>
        <trkpt lat="27.2875483" lon="103.3233185"><ele>2229.14</ele><time>2026-07-14T18:33:49.000Z</time></trkpt>
        <trkpt lat="27.2873922" lon="103.3233071"><ele>2228.24</ele><time>2026-07-14T18:33:51.000Z</time></trkpt>
        <trkpt lat="27.2872378" lon="103.3233055"><ele>2227.46</ele><time>2026-07-14T18:33:53.000Z</time></trkpt>
        <trkpt lat="27.2870843" lon="103.3233294"><ele>2226.41</ele><time>2026-07-14T18:33:55.000Z</time></trkpt>
        <trkpt lat="27.2869601" lon="103.3233698"><ele>2225.16</ele><time>2026-07-14T18:33:57.000Z</time></trkpt>
        <trkpt lat="27.2868517" lon="103.3234434"><ele>2224.07</ele><time>2026-07-14T18:33:59.000Z</time></trkpt>
        <trkpt lat="27.2867559" lon="103.3235591"><ele>2223.2</ele><time>2026-07-14T18:34:01.000Z</time></trkpt>
        <trkpt lat="27.2866669" lon="103.3237062"><ele>2222.28</ele><time>2026-07-14T18:34:03.000Z</time></trkpt>
        <trkpt lat="27.2865769" lon="103.3238546"><ele>2221.22</ele><time>2026-07-14T18:34:05.000Z</time></trkpt>
        <trkpt lat="27.2864816" lon="103.3239836"><ele>2220.08</ele><time>2026-07-14T18:34:07.000Z</time></trkpt>
        <trkpt lat="27.2863653" lon="103.3240734"><ele>2219.03</ele><time>2026-07-14T18:34:09.000Z</time></trkpt>
        <trkpt lat="27.2862302" lon="103.3241028"><ele>2218.15</ele><time>2026-07-14T18:34:11.000Z</time></trkpt>
        <trkpt lat="27.286086" lon="103.3241008"><ele>2216.66</ele><time>2026-07-14T18:34:13.000Z</time></trkpt>
        <trkpt lat="27.2859349" lon="103.3240991"><ele>2215.25</ele><time>2026-07-14T18:34:15.000Z</time></trkpt>
        <trkpt lat="27.2857781" lon="103.3240967"><ele>2214.3</ele><time>2026-07-14T18:34:17.000Z</time></trkpt>
        <trkpt lat="27.28562" lon="103.324089"><ele>2213.18</ele><time>2026-07-14T18:34:19.000Z</time></trkpt>
        <trkpt lat="27.2854631" lon="103.3240758"><ele>2211.81</ele><time>2026-07-14T18:34:21.000Z</time></trkpt>
        <trkpt lat="27.2853026" lon="103.3240546"><ele>2210.52</ele><time>2026-07-14T18:34:23.000Z</time></trkpt>
        <trkpt lat="27.2851343" lon="103.324035"><ele>2209.4</ele><time>2026-07-14T18:34:25.000Z</time></trkpt>
        <trkpt lat="27.2849574" lon="103.3240099"><ele>2208.19</ele><time>2026-07-14T18:34:27.000Z</time></trkpt>
        <trkpt lat="27.2847685" lon="103.3239846"><ele>2207.03</ele><time>2026-07-14T18:34:29.000Z</time></trkpt>
        <trkpt lat="27.2845872" lon="103.3239684"><ele>2205.96</ele><time>2026-07-14T18:34:31.000Z</time></trkpt>
        <trkpt lat="27.2844152" lon="103.3239512"><ele>2205.03</ele><time>2026-07-14T18:34:33.000Z</time></trkpt>
        <trkpt lat="27.284257" lon="103.3239425"><ele>2204.44</ele><time>2026-07-14T18:34:35.000Z</time></trkpt>
        <trkpt lat="27.2841191" lon="103.3239475"><ele>2203.31</ele><time>2026-07-14T18:34:37.000Z</time></trkpt>
        <trkpt lat="27.2840069" lon="103.323966"><ele>2202.19</ele><time>2026-07-14T18:34:39.000Z</time></trkpt>
        <trkpt lat="27.2838994" lon="103.3240005"><ele>2200.99</ele><time>2026-07-14T18:34:41.000Z</time></trkpt>
        <trkpt lat="27.2837959" lon="103.3240531"><ele>2200.24</ele><time>2026-07-14T18:34:43.000Z</time></trkpt>
        <trkpt lat="27.283695" lon="103.324101"><ele>2199.43</ele><time>2026-07-14T18:34:45.000Z</time></trkpt>
        <trkpt lat="27.2836007" lon="103.324113"><ele>2198.51</ele><time>2026-07-14T18:34:47.000Z</time></trkpt>
        <trkpt lat="27.2835093" lon="103.3240031"><ele>2197.69</ele><time>2026-07-14T18:34:51.000Z</time></trkpt>
        <trkpt lat="27.2835127" lon="103.3238734"><ele>2196.88</ele><time>2026-07-14T18:34:53.000Z</time></trkpt>
        <trkpt lat="27.2835885" lon="103.3237585"><ele>2195.94</ele><time>2026-07-14T18:34:55.000Z</time></trkpt>
        <trkpt lat="27.2837048" lon="103.3236613"><ele>2195.11</ele><time>2026-07-14T18:34:57.000Z</time></trkpt>
        <trkpt lat="27.2838376" lon="103.3235797"><ele>2194.39</ele><time>2026-07-14T18:34:59.000Z</time></trkpt>
        <trkpt lat="27.2839824" lon="103.3235094"><ele>2193.48</ele><time>2026-07-14T18:35:01.000Z</time></trkpt>
        <trkpt lat="27.2841325" lon="103.3234506"><ele>2192.6</ele><time>2026-07-14T18:35:03.000Z</time></trkpt>
        <trkpt lat="27.2842821" lon="103.3233932"><ele>2191.54</ele><time>2026-07-14T18:35:05.000Z</time></trkpt>
        <trkpt lat="27.2844348" lon="103.3233354"><ele>2191</ele><time>2026-07-14T18:35:07.000Z</time></trkpt>
        <trkpt lat="27.2845813" lon="103.3232774"><ele>2190.48</ele><time>2026-07-14T18:35:09.000Z</time></trkpt>
        <trkpt lat="27.2847273" lon="103.3232204"><ele>2190.27</ele><time>2026-07-14T18:35:11.000Z</time></trkpt>
        <trkpt lat="27.2848676" lon="103.3231757"><ele>2189.92</ele><time>2026-07-14T18:35:13.000Z</time></trkpt>
        <trkpt lat="27.2850068" lon="103.3231584"><ele>2189.83</ele><time>2026-07-14T18:35:15.000Z</time></trkpt>
        <trkpt lat="27.2851326" lon="103.323181"><ele>2189.39</ele><time>2026-07-14T18:35:17.000Z</time></trkpt>
        <trkpt lat="27.2852345" lon="103.3232242"><ele>2189.05</ele><time>2026-07-14T18:35:19.000Z</time></trkpt>
        <trkpt lat="27.2851998" lon="103.3231876"><ele>2188.3</ele><time>2026-07-14T18:35:41.000Z</time></trkpt>
        <trkpt lat="27.2851907" lon="103.3232214"><ele>2187.69</ele><time>2026-07-14T18:35:59.000Z</time></trkpt>
        <trkpt lat="27.2853177" lon="103.323276"><ele>2186.95</ele><time>2026-07-14T18:37:18.000Z</time></trkpt>
        <trkpt lat="27.2854821" lon="103.3233121"><ele>2186.22</ele><time>2026-07-14T18:37:22.000Z</time></trkpt>
        <trkpt lat="27.2855957" lon="103.3233304"><ele>2185.75</ele><time>2026-07-14T18:37:24.000Z</time></trkpt>
        <trkpt lat="27.2857066" lon="103.3233213"><ele>2184.96</ele><time>2026-07-14T18:37:26.000Z</time></trkpt>
        <trkpt lat="27.2858105" lon="103.323276"><ele>2184.38</ele><time>2026-07-14T18:37:28.000Z</time></trkpt>
        <trkpt lat="27.2859127" lon="103.3231865"><ele>2183.66</ele><time>2026-07-14T18:37:30.000Z</time></trkpt>
        <trkpt lat="27.2860036" lon="103.3230707"><ele>2182.94</ele><time>2026-07-14T18:37:32.000Z</time></trkpt>
        <trkpt lat="27.2860763" lon="103.3229496"><ele>2182.23</ele><time>2026-07-14T18:37:34.000Z</time></trkpt>
        <trkpt lat="27.2861426" lon="103.3228111"><ele>2181.84</ele><time>2026-07-14T18:37:36.000Z</time></trkpt>
        <trkpt lat="27.2862165" lon="103.3226613"><ele>2181.42</ele><time>2026-07-14T18:37:38.000Z</time></trkpt>
        <trkpt lat="27.2862877" lon="103.3225043"><ele>2181.32</ele><time>2026-07-14T18:37:40.000Z</time></trkpt>
        <trkpt lat="27.28635" lon="103.3223348"><ele>2181.26</ele><time>2026-07-14T18:37:42.000Z</time></trkpt>
        <trkpt lat="27.2864052" lon="103.3221381"><ele>2181.3</ele><time>2026-07-14T18:37:44.000Z</time></trkpt>
        <trkpt lat="27.2864652" lon="103.3219149"><ele>2181.08</ele><time>2026-07-14T18:37:46.000Z</time></trkpt>
        <trkpt lat="27.2865341" lon="103.3217076"><ele>2180.48</ele><time>2026-07-14T18:37:48.000Z</time></trkpt>
        <trkpt lat="27.286565" lon="103.3215226"><ele>2179.17</ele><time>2026-07-14T18:37:50.000Z</time></trkpt>
        <trkpt lat="27.2865168" lon="103.3213636"><ele>2177.58</ele><time>2026-07-14T18:37:52.000Z</time></trkpt>
        <trkpt lat="27.2864118" lon="103.3212219"><ele>2176.14</ele><time>2026-07-14T18:37:54.000Z</time></trkpt>
        <trkpt lat="27.2863116" lon="103.3210549"><ele>2174.71</ele><time>2026-07-14T18:37:56.000Z</time></trkpt>
        <trkpt lat="27.2862727" lon="103.3208619"><ele>2173.13</ele><time>2026-07-14T18:37:58.000Z</time></trkpt>
        <trkpt lat="27.2863271" lon="103.3206648"><ele>2171.3</ele><time>2026-07-14T18:38:00.000Z</time></trkpt>
        <trkpt lat="27.2864797" lon="103.3205189"><ele>2170.02</ele><time>2026-07-14T18:38:02.000Z</time></trkpt>
        <trkpt lat="27.2866889" lon="103.3204281"><ele>2168.23</ele><time>2026-07-14T18:38:04.000Z</time></trkpt>
        <trkpt lat="27.2869135" lon="103.3203517"><ele>2166.65</ele><time>2026-07-14T18:38:06.000Z</time></trkpt>
        <trkpt lat="27.2871291" lon="103.3202471"><ele>2165.01</ele><time>2026-07-14T18:38:08.000Z</time></trkpt>
        <trkpt lat="27.287323" lon="103.3201105"><ele>2163.23</ele><time>2026-07-14T18:38:10.000Z</time></trkpt>
        <trkpt lat="27.287514" lon="103.3199707"><ele>2161.63</ele><time>2026-07-14T18:38:12.000Z</time></trkpt>
        <trkpt lat="27.2876941" lon="103.3198503"><ele>2160.27</ele><time>2026-07-14T18:38:14.000Z</time></trkpt>
        <trkpt lat="27.2878326" lon="103.3197198"><ele>2159.25</ele><time>2026-07-14T18:38:16.000Z</time></trkpt>
        <trkpt lat="27.2879011" lon="103.3195509"><ele>2158.66</ele><time>2026-07-14T18:38:18.000Z</time></trkpt>
        <trkpt lat="27.2878963" lon="103.3193494"><ele>2158.18</ele><time>2026-07-14T18:38:20.000Z</time></trkpt>
        <trkpt lat="27.2878096" lon="103.3191656"><ele>2157.03</ele><time>2026-07-14T18:38:22.000Z</time></trkpt>
        <trkpt lat="27.2876542" lon="103.3190498"><ele>2155.96</ele><time>2026-07-14T18:38:24.000Z</time></trkpt>
        <trkpt lat="27.2874774" lon="103.3189582"><ele>2155.34</ele><time>2026-07-14T18:38:26.000Z</time></trkpt>
        <trkpt lat="27.287339" lon="103.3188251"><ele>2153.79</ele><time>2026-07-14T18:38:28.000Z</time></trkpt>
        <trkpt lat="27.2872863" lon="103.3186507"><ele>2152.09</ele><time>2026-07-14T18:38:30.000Z</time></trkpt>
        <trkpt lat="27.2873263" lon="103.3184656"><ele>2150.67</ele><time>2026-07-14T18:38:32.000Z</time></trkpt>
        <trkpt lat="27.2874915" lon="103.3183245"><ele>2149.74</ele><time>2026-07-14T18:38:34.000Z</time></trkpt>
        <trkpt lat="27.2877266" lon="103.3182568"><ele>2148.71</ele><time>2026-07-14T18:38:36.000Z</time></trkpt>
        <trkpt lat="27.2879426" lon="103.3182015"><ele>2147.11</ele><time>2026-07-14T18:38:38.000Z</time></trkpt>
        <trkpt lat="27.2881182" lon="103.3181284"><ele>2145.93</ele><time>2026-07-14T18:38:40.000Z</time></trkpt>
        <trkpt lat="27.2882745" lon="103.3180278"><ele>2145.06</ele><time>2026-07-14T18:38:42.000Z</time></trkpt>
        <trkpt lat="27.2884144" lon="103.3178634"><ele>2144.12</ele><time>2026-07-14T18:38:44.000Z</time></trkpt>
        <trkpt lat="27.2885334" lon="103.3176748"><ele>2142.48</ele><time>2026-07-14T18:38:46.000Z</time></trkpt>
        <trkpt lat="27.2885958" lon="103.317556"><ele>2140.59</ele><time>2026-07-14T18:38:50.000Z</time></trkpt>
        <trkpt lat="27.2885623" lon="103.3176127"><ele>2138.85</ele><time>2026-07-14T18:38:58.000Z</time></trkpt>
        <trkpt lat="27.2884976" lon="103.3177184"><ele>2138.18</ele><time>2026-07-14T18:39:26.000Z</time></trkpt>
        <trkpt lat="27.2884562" lon="103.3177819"><ele>2138.85</ele><time>2026-07-14T18:39:32.000Z</time></trkpt>
        <trkpt lat="27.2885094" lon="103.3177184"><ele>2138.78</ele><time>2026-07-14T18:41:24.000Z</time></trkpt>
        <trkpt lat="27.2885299" lon="103.3176579"><ele>2137.94</ele><time>2026-07-14T18:41:34.000Z</time></trkpt>
        <trkpt lat="27.2885806" lon="103.3175688"><ele>2138.61</ele><time>2026-07-14T18:41:42.000Z</time></trkpt>
        <trkpt lat="27.2886689" lon="103.3174452"><ele>2139.08</ele><time>2026-07-14T18:41:44.000Z</time></trkpt>
        <trkpt lat="27.2887433" lon="103.3173196"><ele>2139.56</ele><time>2026-07-14T18:41:46.000Z</time></trkpt>
        <trkpt lat="27.2888037" lon="103.3171795"><ele>2139.47</ele><time>2026-07-14T18:41:48.000Z</time></trkpt>
        <trkpt lat="27.288847" lon="103.3170285"><ele>2136.61</ele><time>2026-07-14T18:41:50.000Z</time></trkpt>
        <trkpt lat="27.2888838" lon="103.3168623"><ele>2135.72</ele><time>2026-07-14T18:41:52.000Z</time></trkpt>
        <trkpt lat="27.2889326" lon="103.3166992"><ele>2134.02</ele><time>2026-07-14T18:41:54.000Z</time></trkpt>
        <trkpt lat="27.289025" lon="103.3165741"><ele>2131.92</ele><time>2026-07-14T18:41:56.000Z</time></trkpt>
        <trkpt lat="27.28916" lon="103.3165092"><ele>2130.17</ele><time>2026-07-14T18:41:58.000Z</time></trkpt>
        <trkpt lat="27.2892721" lon="103.3164959"><ele>2128.68</ele><time>2026-07-14T18:42:00.000Z</time></trkpt>
        <trkpt lat="27.289326" lon="103.3165007"><ele>2127.66</ele><time>2026-07-14T18:42:04.000Z</time></trkpt>
        <trkpt lat="27.2893988" lon="103.3164888"><ele>2126.84</ele><time>2026-07-14T18:45:34.000Z</time></trkpt>
        <trkpt lat="27.2894924" lon="103.3164875"><ele>2125.84</ele><time>2026-07-14T18:45:44.000Z</time></trkpt>
        <trkpt lat="27.289595" lon="103.3164948"><ele>2124.82</ele><time>2026-07-14T18:45:54.000Z</time></trkpt>
        <trkpt lat="27.2896888" lon="103.3165021"><ele>2124.25</ele><time>2026-07-14T18:46:18.000Z</time></trkpt>
        <trkpt lat="27.2897802" lon="103.3165139"><ele>2125.5</ele><time>2026-07-14T18:46:34.000Z</time></trkpt>
        <trkpt lat="27.2898651" lon="103.3165489"><ele>2125.56</ele><time>2026-07-14T18:46:42.000Z</time></trkpt>
        <trkpt lat="27.289955" lon="103.3165651"><ele>2126</ele><time>2026-07-14T18:46:56.000Z</time></trkpt>
        <trkpt lat="27.2900911" lon="103.3166363"><ele>2127.09</ele><time>2026-07-14T18:47:00.000Z</time></trkpt>
        <trkpt lat="27.2901749" lon="103.3167249"><ele>2127.54</ele><time>2026-07-14T18:47:02.000Z</time></trkpt>
        <trkpt lat="27.2902332" lon="103.3168619"><ele>2127.49</ele><time>2026-07-14T18:47:06.000Z</time></trkpt>
        <trkpt lat="27.2902533" lon="103.3169319"><ele>2127.12</ele><time>2026-07-14T18:47:10.000Z</time></trkpt>
        <trkpt lat="27.2902672" lon="103.3170633"><ele>2126.86</ele><time>2026-07-14T18:48:46.000Z</time></trkpt>
        <trkpt lat="27.2902922" lon="103.317121"><ele>2124.12</ele><time>2026-07-14T18:48:58.000Z</time></trkpt>
        <trkpt lat="27.290328" lon="103.3172612"><ele>2122.57</ele><time>2026-07-14T18:51:37.000Z</time></trkpt>
        <trkpt lat="27.2903404" lon="103.3173641"><ele>2122.58</ele><time>2026-07-14T18:51:39.000Z</time></trkpt>
        <trkpt lat="27.2903467" lon="103.3174813"><ele>2122.55</ele><time>2026-07-14T18:51:41.000Z</time></trkpt>
        <trkpt lat="27.2903497" lon="103.3175992"><ele>2122.09</ele><time>2026-07-14T18:51:43.000Z</time></trkpt>
        <trkpt lat="27.290357" lon="103.3177226"><ele>2121.48</ele><time>2026-07-14T18:51:45.000Z</time></trkpt>
        <trkpt lat="27.2903887" lon="103.3178519"><ele>2120.72</ele><time>2026-07-14T18:51:47.000Z</time></trkpt>
        <trkpt lat="27.2904572" lon="103.3179734"><ele>2119.72</ele><time>2026-07-14T18:51:49.000Z</time></trkpt>
        <trkpt lat="27.2905696" lon="103.3180776"><ele>2119</ele><time>2026-07-14T18:51:51.000Z</time></trkpt>
        <trkpt lat="27.2907019" lon="103.3181589"><ele>2118</ele><time>2026-07-14T18:51:53.000Z</time></trkpt>
        <trkpt lat="27.2908485" lon="103.3182184"><ele>2117.27</ele><time>2026-07-14T18:51:55.000Z</time></trkpt>
        <trkpt lat="27.2909831" lon="103.3182484"><ele>2116.17</ele><time>2026-07-14T18:51:57.000Z</time></trkpt>
        <trkpt lat="27.2911414" lon="103.318256"><ele>2114.96</ele><time>2026-07-14T18:52:01.000Z</time></trkpt>
        <trkpt lat="27.2912301" lon="103.3182488"><ele>2114.01</ele><time>2026-07-14T18:52:05.000Z</time></trkpt>
        <trkpt lat="27.2911695" lon="103.3182488"><ele>2113.69</ele><time>2026-07-14T18:53:01.000Z</time></trkpt>
        <trkpt lat="27.2911147" lon="103.3182489"><ele>2114.43</ele><time>2026-07-14T18:53:03.000Z</time></trkpt>
        <trkpt lat="27.2911796" lon="103.3182547"><ele>2114.5</ele><time>2026-07-14T18:54:11.000Z</time></trkpt>
        <trkpt lat="27.2912192" lon="103.3182293"><ele>2112.91</ele><time>2026-07-14T18:54:21.000Z</time></trkpt>
        <trkpt lat="27.2913807" lon="103.3182187"><ele>2111.96</ele><time>2026-07-14T18:54:37.000Z</time></trkpt>
        <trkpt lat="27.2915058" lon="103.3182041"><ele>2112.27</ele><time>2026-07-14T18:54:39.000Z</time></trkpt>
        <trkpt lat="27.2916326" lon="103.3181933"><ele>2112.08</ele><time>2026-07-14T18:54:41.000Z</time></trkpt>
        <trkpt lat="27.2917497" lon="103.3182004"><ele>2111.85</ele><time>2026-07-14T18:54:43.000Z</time></trkpt>
        <trkpt lat="27.2918285" lon="103.3182167"><ele>2111.39</ele><time>2026-07-14T18:54:47.000Z</time></trkpt>
        <trkpt lat="27.2919389" lon="103.3182813"><ele>2110.9</ele><time>2026-07-14T18:54:55.000Z</time></trkpt>
        <trkpt lat="27.2920074" lon="103.3183727"><ele>2110.01</ele><time>2026-07-14T18:54:57.000Z</time></trkpt>
        <trkpt lat="27.2920291" lon="103.3185011"><ele>2109.32</ele><time>2026-07-14T18:54:59.000Z</time></trkpt>
        <trkpt lat="27.2920182" lon="103.3186534"><ele>2108.99</ele><time>2026-07-14T18:55:01.000Z</time></trkpt>
        <trkpt lat="27.2919917" lon="103.3188185"><ele>2108.13</ele><time>2026-07-14T18:55:03.000Z</time></trkpt>
        <trkpt lat="27.2919577" lon="103.3189882"><ele>2107.53</ele><time>2026-07-14T18:55:05.000Z</time></trkpt>
        <trkpt lat="27.2919349" lon="103.3191657"><ele>2107.29</ele><time>2026-07-14T18:55:07.000Z</time></trkpt>
        <trkpt lat="27.2919525" lon="103.3193219"><ele>2105.16</ele><time>2026-07-14T18:55:09.000Z</time></trkpt>
        <trkpt lat="27.2920236" lon="103.3194542"><ele>2103.78</ele><time>2026-07-14T18:55:11.000Z</time></trkpt>
        <trkpt lat="27.2921099" lon="103.3195799"><ele>2102.85</ele><time>2026-07-14T18:55:13.000Z</time></trkpt>
        <trkpt lat="27.2922837" lon="103.3196102"><ele>2102.26</ele><time>2026-07-14T18:55:15.000Z</time></trkpt>
        <trkpt lat="27.2924431" lon="103.3196868"><ele>2102.96</ele><time>2026-07-14T18:55:17.000Z</time></trkpt>
        <trkpt lat="27.2925771" lon="103.3198175"><ele>2102.08</ele><time>2026-07-14T18:55:19.000Z</time></trkpt>
        <trkpt lat="27.2927066" lon="103.3199715"><ele>2100.92</ele><time>2026-07-14T18:55:21.000Z</time></trkpt>
        <trkpt lat="27.2928443" lon="103.3201294"><ele>2099.65</ele><time>2026-07-14T18:55:23.000Z</time></trkpt>
        <trkpt lat="27.2929889" lon="103.3202827"><ele>2097.79</ele><time>2026-07-14T18:55:25.000Z</time></trkpt>
        <trkpt lat="27.2931488" lon="103.3204078"><ele>2096.3</ele><time>2026-07-14T18:55:27.000Z</time></trkpt>
        <trkpt lat="27.2933198" lon="103.3204987"><ele>2095.04</ele><time>2026-07-14T18:55:29.000Z</time></trkpt>
        <trkpt lat="27.2935019" lon="103.3205525"><ele>2093.66</ele><time>2026-07-14T18:55:31.000Z</time></trkpt>
        <trkpt lat="27.2936922" lon="103.3205914"><ele>2092.36</ele><time>2026-07-14T18:55:33.000Z</time></trkpt>
        <trkpt lat="27.2938941" lon="103.3206258"><ele>2091.29</ele><time>2026-07-14T18:55:35.000Z</time></trkpt>
        <trkpt lat="27.2941004" lon="103.3206351"><ele>2090.31</ele><time>2026-07-14T18:55:37.000Z</time></trkpt>
        <trkpt lat="27.2943038" lon="103.3206501"><ele>2089.17</ele><time>2026-07-14T18:55:39.000Z</time></trkpt>
        <trkpt lat="27.2945038" lon="103.320704"><ele>2088.25</ele><time>2026-07-14T18:55:41.000Z</time></trkpt>
        <trkpt lat="27.2946794" lon="103.3208124"><ele>2087.33</ele><time>2026-07-14T18:55:43.000Z</time></trkpt>
        <trkpt lat="27.2947946" lon="103.3209772"><ele>2086.39</ele><time>2026-07-14T18:55:45.000Z</time></trkpt>
        <trkpt lat="27.2948681" lon="103.3211724"><ele>2085.29</ele><time>2026-07-14T18:55:47.000Z</time></trkpt>
        <trkpt lat="27.2949306" lon="103.3213723"><ele>2084.65</ele><time>2026-07-14T18:55:49.000Z</time></trkpt>
        <trkpt lat="27.2949986" lon="103.3215713"><ele>2084.15</ele><time>2026-07-14T18:55:51.000Z</time></trkpt>
        <trkpt lat="27.295073" lon="103.3217649"><ele>2083.67</ele><time>2026-07-14T18:55:53.000Z</time></trkpt>
        <trkpt lat="27.2951248" lon="103.3219633"><ele>2083.13</ele><time>2026-07-14T18:55:55.000Z</time></trkpt>
        <trkpt lat="27.2951324" lon="103.3221707"><ele>2082.25</ele><time>2026-07-14T18:55:57.000Z</time></trkpt>
        <trkpt lat="27.295105" lon="103.3223805"><ele>2081.56</ele><time>2026-07-14T18:55:59.000Z</time></trkpt>
        <trkpt lat="27.295103" lon="103.3225939"><ele>2081.02</ele><time>2026-07-14T18:56:01.000Z</time></trkpt>
        <trkpt lat="27.2951471" lon="103.3228037"><ele>2080.09</ele><time>2026-07-14T18:56:03.000Z</time></trkpt>
        <trkpt lat="27.2952197" lon="103.3230135"><ele>2079.47</ele><time>2026-07-14T18:56:05.000Z</time></trkpt>
        <trkpt lat="27.2952972" lon="103.3232202"><ele>2078.78</ele><time>2026-07-14T18:56:07.000Z</time></trkpt>
        <trkpt lat="27.2953778" lon="103.3234152"><ele>2077.65</ele><time>2026-07-14T18:56:09.000Z</time></trkpt>
        <trkpt lat="27.295495" lon="103.3235529"><ele>2076.55</ele><time>2026-07-14T18:56:11.000Z</time></trkpt>
        <trkpt lat="27.2956625" lon="103.3236059"><ele>2075.18</ele><time>2026-07-14T18:56:13.000Z</time></trkpt>
        <trkpt lat="27.2958502" lon="103.3235609"><ele>2073.91</ele><time>2026-07-14T18:56:15.000Z</time></trkpt>
        <trkpt lat="27.2960312" lon="103.323471"><ele>2073.08</ele><time>2026-07-14T18:56:17.000Z</time></trkpt>
        <trkpt lat="27.2961889" lon="103.3233434"><ele>2072.46</ele><time>2026-07-14T18:56:19.000Z</time></trkpt>
        <trkpt lat="27.2963015" lon="103.3232665"><ele>2071.94</ele><time>2026-07-14T18:56:21.000Z</time></trkpt>
        <trkpt lat="27.296359" lon="103.3232223"><ele>2071.49</ele><time>2026-07-14T18:56:27.000Z</time></trkpt>
        <trkpt lat="27.2962988" lon="103.3232384"><ele>2071.53</ele><time>2026-07-14T18:56:43.000Z</time></trkpt>
        <trkpt lat="27.296347" lon="103.3232712"><ele>2071.03</ele><time>2026-07-14T18:58:20.000Z</time></trkpt>
        <trkpt lat="27.2964072" lon="103.323192"><ele>2069.56</ele><time>2026-07-14T18:58:36.000Z</time></trkpt>
        <trkpt lat="27.2965291" lon="103.3230261"><ele>2069.07</ele><time>2026-07-14T18:58:40.000Z</time></trkpt>
        <trkpt lat="27.2966065" lon="103.3228802"><ele>2068.6</ele><time>2026-07-14T18:58:42.000Z</time></trkpt>
        <trkpt lat="27.2966782" lon="103.3227179"><ele>2068.38</ele><time>2026-07-14T18:58:44.000Z</time></trkpt>
        <trkpt lat="27.2967605" lon="103.3225561"><ele>2067.65</ele><time>2026-07-14T18:58:46.000Z</time></trkpt>
        <trkpt lat="27.2968563" lon="103.3223855"><ele>2066.63</ele><time>2026-07-14T18:58:48.000Z</time></trkpt>
        <trkpt lat="27.2969593" lon="103.3222084"><ele>2065.27</ele><time>2026-07-14T18:58:50.000Z</time></trkpt>
        <trkpt lat="27.2970787" lon="103.3220325"><ele>2064.06</ele><time>2026-07-14T18:58:52.000Z</time></trkpt>
        <trkpt lat="27.2972062" lon="103.3218634"><ele>2062.65</ele><time>2026-07-14T18:58:54.000Z</time></trkpt>
        <trkpt lat="27.2973471" lon="103.3217077"><ele>2060.76</ele><time>2026-07-14T18:58:56.000Z</time></trkpt>
        <trkpt lat="27.2975128" lon="103.3215948"><ele>2058.89</ele><time>2026-07-14T18:58:58.000Z</time></trkpt>
        <trkpt lat="27.2977101" lon="103.3215511"><ele>2057.21</ele><time>2026-07-14T18:59:00.000Z</time></trkpt>
        <trkpt lat="27.2979213" lon="103.3215612"><ele>2055.17</ele><time>2026-07-14T18:59:02.000Z</time></trkpt>
        <trkpt lat="27.2981391" lon="103.3216192"><ele>2052.93</ele><time>2026-07-14T18:59:04.000Z</time></trkpt>
        <trkpt lat="27.2983392" lon="103.3217221"><ele>2050.62</ele><time>2026-07-14T18:59:06.000Z</time></trkpt>
        <trkpt lat="27.2984924" lon="103.3218764"><ele>2048.33</ele><time>2026-07-14T18:59:08.000Z</time></trkpt>
        <trkpt lat="27.2985938" lon="103.3220742"><ele>2046.41</ele><time>2026-07-14T18:59:10.000Z</time></trkpt>
        <trkpt lat="27.2986874" lon="103.3222709"><ele>2044.82</ele><time>2026-07-14T18:59:12.000Z</time></trkpt>
        <trkpt lat="27.2987696" lon="103.3224421"><ele>2043.36</ele><time>2026-07-14T18:59:14.000Z</time></trkpt>
        <trkpt lat="27.2988397" lon="103.3225894"><ele>2042.36</ele><time>2026-07-14T18:59:16.000Z</time></trkpt>
        <trkpt lat="27.2989359" lon="103.3227078"><ele>2041.66</ele><time>2026-07-14T18:59:20.000Z</time></trkpt>
        <trkpt lat="27.2990612" lon="103.3227533"><ele>2041.28</ele><time>2026-07-14T18:59:22.000Z</time></trkpt>
        <trkpt lat="27.2991759" lon="103.3227208"><ele>2040.92</ele><time>2026-07-14T18:59:24.000Z</time></trkpt>
        <trkpt lat="27.2993204" lon="103.32261"><ele>2039.69</ele><time>2026-07-14T18:59:26.000Z</time></trkpt>
        <trkpt lat="27.2994424" lon="103.3225174"><ele>2037.42</ele><time>2026-07-14T18:59:30.000Z</time></trkpt>
        <trkpt lat="27.2994788" lon="103.3224899"><ele>2035.92</ele><time>2026-07-14T18:59:32.000Z</time></trkpt>
        <trkpt lat="27.2995696" lon="103.3224238"><ele>2034.76</ele><time>2026-07-14T19:01:54.000Z</time></trkpt>
        <trkpt lat="27.2996445" lon="103.3223579"><ele>2033.8</ele><time>2026-07-14T19:01:56.000Z</time></trkpt>
        <trkpt lat="27.2997334" lon="103.3222853"><ele>2033.07</ele><time>2026-07-14T19:01:58.000Z</time></trkpt>
        <trkpt lat="27.2998322" lon="103.3221996"><ele>2032.27</ele><time>2026-07-14T19:02:00.000Z</time></trkpt>
        <trkpt lat="27.2999424" lon="103.3221058"><ele>2031.66</ele><time>2026-07-14T19:02:02.000Z</time></trkpt>
        <trkpt lat="27.3000548" lon="103.3220159"><ele>2030.75</ele><time>2026-07-14T19:02:04.000Z</time></trkpt>
        <trkpt lat="27.3001752" lon="103.3219434"><ele>2030.01</ele><time>2026-07-14T19:02:06.000Z</time></trkpt>
        <trkpt lat="27.3003042" lon="103.3219183"><ele>2029.27</ele><time>2026-07-14T19:02:08.000Z</time></trkpt>
        <trkpt lat="27.3004331" lon="103.3219292"><ele>2028.58</ele><time>2026-07-14T19:02:10.000Z</time></trkpt>
        <trkpt lat="27.3005444" lon="103.3219643"><ele>2027.56</ele><time>2026-07-14T19:02:12.000Z</time></trkpt>
        <trkpt lat="27.3006387" lon="103.3220296"><ele>2027.22</ele><time>2026-07-14T19:02:14.000Z</time></trkpt>
        <trkpt lat="27.3007446" lon="103.3221"><ele>2026.51</ele><time>2026-07-14T19:02:22.000Z</time></trkpt>
        <trkpt lat="27.3009074" lon="103.3221476"><ele>2025.73</ele><time>2026-07-14T19:02:26.000Z</time></trkpt>
        <trkpt lat="27.3010521" lon="103.3221721"><ele>2025.32</ele><time>2026-07-14T19:02:28.000Z</time></trkpt>
        <trkpt lat="27.301186" lon="103.3221903"><ele>2025.41</ele><time>2026-07-14T19:02:30.000Z</time></trkpt>
        <trkpt lat="27.3012997" lon="103.3221967"><ele>2025.19</ele><time>2026-07-14T19:02:32.000Z</time></trkpt>
        <trkpt lat="27.3014041" lon="103.322221"><ele>2025.53</ele><time>2026-07-14T19:02:40.000Z</time></trkpt>
        <trkpt lat="27.3014342" lon="103.3222278"><ele>2025.65</ele><time>2026-07-14T19:02:42.000Z</time></trkpt>
        <trkpt lat="27.3015164" lon="103.3222532"><ele>2025.56</ele><time>2026-07-14T19:04:34.000Z</time></trkpt>
        <trkpt lat="27.3016075" lon="103.3222671"><ele>2024.34</ele><time>2026-07-14T19:04:36.000Z</time></trkpt>
        <trkpt lat="27.3017066" lon="103.3222722"><ele>2023.5</ele><time>2026-07-14T19:04:38.000Z</time></trkpt>
        <trkpt lat="27.3018011" lon="103.3222743"><ele>2022.13</ele><time>2026-07-14T19:04:40.000Z</time></trkpt>
        <trkpt lat="27.3018978" lon="103.3222584"><ele>2021.19</ele><time>2026-07-14T19:04:42.000Z</time></trkpt>
        <trkpt lat="27.3020198" lon="103.3222288"><ele>2020.96</ele><time>2026-07-14T19:04:46.000Z</time></trkpt>
        <trkpt lat="27.3020616" lon="103.3222144"><ele>2020.3</ele><time>2026-07-14T19:04:48.000Z</time></trkpt>
        <trkpt lat="27.302133" lon="103.3222043"><ele>2020.49</ele><time>2026-07-14T19:05:06.000Z</time></trkpt>
        <trkpt lat="27.3022234" lon="103.3221576"><ele>2017.5</ele><time>2026-07-14T19:07:05.000Z</time></trkpt>
        <trkpt lat="27.3022965" lon="103.3221311"><ele>2018.76</ele><time>2026-07-14T19:07:17.000Z</time></trkpt>
        <trkpt lat="27.3023826" lon="103.3221104"><ele>2018.21</ele><time>2026-07-14T19:07:37.000Z</time></trkpt>
        <trkpt lat="27.3024799" lon="103.322089"><ele>2018.08</ele><time>2026-07-14T19:07:57.000Z</time></trkpt>
        <trkpt lat="27.3025392" lon="103.3220838"><ele>2017.97</ele><time>2026-07-14T19:08:05.000Z</time></trkpt>
        <trkpt lat="27.3026303" lon="103.3220894"><ele>2017.67</ele><time>2026-07-14T19:08:29.000Z</time></trkpt>
        <trkpt lat="27.3027227" lon="103.3220887"><ele>2017.1</ele><time>2026-07-14T19:08:37.000Z</time></trkpt>
        <trkpt lat="27.3028219" lon="103.3220923"><ele>2017.02</ele><time>2026-07-14T19:08:47.000Z</time></trkpt>
        <trkpt lat="27.3028501" lon="103.322091"><ele>2016.9</ele><time>2026-07-14T19:08:49.000Z</time></trkpt>
        <trkpt lat="27.302921" lon="103.3221067"><ele>2017</ele><time>2026-07-14T19:08:57.000Z</time></trkpt>
        <trkpt lat="27.303045" lon="103.3221766"><ele>2017.2</ele><time>2026-07-14T19:09:23.000Z</time></trkpt>
        <trkpt lat="27.303166" lon="103.3222526"><ele>2016.41</ele><time>2026-07-14T19:09:25.000Z</time></trkpt>
        <trkpt lat="27.303293" lon="103.3223381"><ele>2015.22</ele><time>2026-07-14T19:09:27.000Z</time></trkpt>
        <trkpt lat="27.3034185" lon="103.3224339"><ele>2015.13</ele><time>2026-07-14T19:09:29.000Z</time></trkpt>
        <trkpt lat="27.303549" lon="103.3225041"><ele>2014.98</ele><time>2026-07-14T19:09:31.000Z</time></trkpt>
        <trkpt lat="27.3036581" lon="103.3225398"><ele>2014.13</ele><time>2026-07-14T19:09:33.000Z</time></trkpt>
        <trkpt lat="27.3037696" lon="103.322511"><ele>2013.7</ele><time>2026-07-14T19:09:35.000Z</time></trkpt>
        <trkpt lat="27.3037541" lon="103.3223462"><ele>2013.62</ele><time>2026-07-14T19:09:37.000Z</time></trkpt>
        <trkpt lat="27.3036368" lon="103.3221986"><ele>2012.83</ele><time>2026-07-14T19:09:39.000Z</time></trkpt>
        <trkpt lat="27.303465" lon="103.3220466"><ele>2011.08</ele><time>2026-07-14T19:09:41.000Z</time></trkpt>
        <trkpt lat="27.303288" lon="103.3218798"><ele>2009.17</ele><time>2026-07-14T19:09:43.000Z</time></trkpt>
        <trkpt lat="27.3031292" lon="103.3217031"><ele>2007.6</ele><time>2026-07-14T19:09:45.000Z</time></trkpt>
        <trkpt lat="27.3029697" lon="103.3215533"><ele>2006.32</ele><time>2026-07-14T19:09:47.000Z</time></trkpt>
        <trkpt lat="27.3027794" lon="103.3214423"><ele>2004.31</ele><time>2026-07-14T19:09:49.000Z</time></trkpt>
        <trkpt lat="27.3025641" lon="103.3214035"><ele>2002.25</ele><time>2026-07-14T19:09:51.000Z</time></trkpt>
        <trkpt lat="27.3023405" lon="103.321442"><ele>2000.48</ele><time>2026-07-14T19:09:53.000Z</time></trkpt>
        <trkpt lat="27.3021032" lon="103.3214693"><ele>1998.45</ele><time>2026-07-14T19:09:55.000Z</time></trkpt>
        <trkpt lat="27.3018515" lon="103.3214609"><ele>1996.96</ele><time>2026-07-14T19:09:57.000Z</time></trkpt>
        <trkpt lat="27.3015933" lon="103.3214039"><ele>1995.1</ele><time>2026-07-14T19:09:59.000Z</time></trkpt>
        <trkpt lat="27.3013359" lon="103.3213257"><ele>1993.53</ele><time>2026-07-14T19:10:01.000Z</time></trkpt>
        <trkpt lat="27.3010782" lon="103.3212589"><ele>1991.81</ele><time>2026-07-14T19:10:03.000Z</time></trkpt>
        <trkpt lat="27.3008547" lon="103.3212281"><ele>1990.03</ele><time>2026-07-14T19:10:05.000Z</time></trkpt>
        <trkpt lat="27.3006366" lon="103.3212078"><ele>1988.01</ele><time>2026-07-14T19:10:07.000Z</time></trkpt>
        <trkpt lat="27.3004096" lon="103.321173"><ele>1985.88</ele><time>2026-07-14T19:10:09.000Z</time></trkpt>
        <trkpt lat="27.3001752" lon="103.3211035"><ele>1983.79</ele><time>2026-07-14T19:10:11.000Z</time></trkpt>
        <trkpt lat="27.2999409" lon="103.3210092"><ele>1981.71</ele><time>2026-07-14T19:10:13.000Z</time></trkpt>
        <trkpt lat="27.2997089" lon="103.3209195"><ele>1979.73</ele><time>2026-07-14T19:10:15.000Z</time></trkpt>
        <trkpt lat="27.2995075" lon="103.3208043"><ele>1977.9</ele><time>2026-07-14T19:10:17.000Z</time></trkpt>
        <trkpt lat="27.299321" lon="103.320652"><ele>1975.61</ele><time>2026-07-14T19:10:19.000Z</time></trkpt>
        <trkpt lat="27.2992028" lon="103.3205212"><ele>1973.01</ele><time>2026-07-14T19:10:21.000Z</time></trkpt>
        <trkpt lat="27.299162" lon="103.3204611"><ele>1970.74</ele><time>2026-07-14T19:10:25.000Z</time></trkpt>
        <trkpt lat="27.2991157" lon="103.320412"><ele>1969.24</ele><time>2026-07-14T19:11:27.000Z</time></trkpt>
        <trkpt lat="27.2991448" lon="103.3204586"><ele>1968.8</ele><time>2026-07-14T19:11:39.000Z</time></trkpt>
        <trkpt lat="27.2990617" lon="103.3203638"><ele>1967.51</ele><time>2026-07-14T19:12:25.000Z</time></trkpt>
        <trkpt lat="27.2989634" lon="103.3202856"><ele>1964.65</ele><time>2026-07-14T19:12:27.000Z</time></trkpt>
        <trkpt lat="27.2988393" lon="103.3202093"><ele>1963.08</ele><time>2026-07-14T19:12:29.000Z</time></trkpt>
        <trkpt lat="27.2987184" lon="103.3201362"><ele>1961.99</ele><time>2026-07-14T19:12:31.000Z</time></trkpt>
        <trkpt lat="27.298692" lon="103.3201327"><ele>1961.17</ele><time>2026-07-14T19:12:37.000Z</time></trkpt>
        <trkpt lat="27.2987564" lon="103.3201727"><ele>1961.15</ele><time>2026-07-14T19:12:57.000Z</time></trkpt>
        <trkpt lat="27.2986984" lon="103.3201553"><ele>1960.37</ele><time>2026-07-14T19:13:49.000Z</time></trkpt>
        <trkpt lat="27.2985803" lon="103.3200677"><ele>1959.73</ele><time>2026-07-14T19:13:53.000Z</time></trkpt>
        <trkpt lat="27.2984677" lon="103.3199999"><ele>1958.3</ele><time>2026-07-14T19:13:55.000Z</time></trkpt>
        <trkpt lat="27.29834" lon="103.3199608"><ele>1957.24</ele><time>2026-07-14T19:13:57.000Z</time></trkpt>
        <trkpt lat="27.2981918" lon="103.3199447"><ele>1956.06</ele><time>2026-07-14T19:13:59.000Z</time></trkpt>
        <trkpt lat="27.2980237" lon="103.3199439"><ele>1955.14</ele><time>2026-07-14T19:14:01.000Z</time></trkpt>
        <trkpt lat="27.2978506" lon="103.319961"><ele>1953.94</ele><time>2026-07-14T19:14:03.000Z</time></trkpt>
        <trkpt lat="27.2976868" lon="103.3200237"><ele>1953.13</ele><time>2026-07-14T19:14:05.000Z</time></trkpt>
        <trkpt lat="27.2975297" lon="103.3201188"><ele>1952.35</ele><time>2026-07-14T19:14:07.000Z</time></trkpt>
        <trkpt lat="27.2973879" lon="103.3202266"><ele>1951.29</ele><time>2026-07-14T19:14:09.000Z</time></trkpt>
        <trkpt lat="27.2972572" lon="103.3203099"><ele>1950.28</ele><time>2026-07-14T19:14:11.000Z</time></trkpt>
        <trkpt lat="27.2971513" lon="103.3203295"><ele>1949.44</ele><time>2026-07-14T19:14:13.000Z</time></trkpt>
        <trkpt lat="27.297152" lon="103.3202044"><ele>1948.34</ele><time>2026-07-14T19:14:17.000Z</time></trkpt>
        <trkpt lat="27.2972672" lon="103.3200816"><ele>1945.56</ele><time>2026-07-14T19:14:19.000Z</time></trkpt>
        <trkpt lat="27.2974431" lon="103.31997"><ele>1943.36</ele><time>2026-07-14T19:14:21.000Z</time></trkpt>
        <trkpt lat="27.2976456" lon="103.3198529"><ele>1941.46</ele><time>2026-07-14T19:14:23.000Z</time></trkpt>
        <trkpt lat="27.2978529" lon="103.3197282"><ele>1940.01</ele><time>2026-07-14T19:14:25.000Z</time></trkpt>
        <trkpt lat="27.2980488" lon="103.3195999"><ele>1938.51</ele><time>2026-07-14T19:14:27.000Z</time></trkpt>
        <trkpt lat="27.2982273" lon="103.3195008"><ele>1937.28</ele><time>2026-07-14T19:14:29.000Z</time></trkpt>
        <trkpt lat="27.2984115" lon="103.3194765"><ele>1936.11</ele><time>2026-07-14T19:14:31.000Z</time></trkpt>
        <trkpt lat="27.2986055" lon="103.3195033"><ele>1934.92</ele><time>2026-07-14T19:14:33.000Z</time></trkpt>
        <trkpt lat="27.2988049" lon="103.3195405"><ele>1933.97</ele><time>2026-07-14T19:14:35.000Z</time></trkpt>
        <trkpt lat="27.2990115" lon="103.3195625"><ele>1933.14</ele><time>2026-07-14T19:14:37.000Z</time></trkpt>
        <trkpt lat="27.2992032" lon="103.3195706"><ele>1932.93</ele><time>2026-07-14T19:14:39.000Z</time></trkpt>
        <trkpt lat="27.2993858" lon="103.3195702"><ele>1931.8</ele><time>2026-07-14T19:14:41.000Z</time></trkpt>
        <trkpt lat="27.2995541" lon="103.3195641"><ele>1930.12</ele><time>2026-07-14T19:14:43.000Z</time></trkpt>
        <trkpt lat="27.2997089" lon="103.3195504"><ele>1928.38</ele><time>2026-07-14T19:14:45.000Z</time></trkpt>
        <trkpt lat="27.2998536" lon="103.3195025"><ele>1926.52</ele><time>2026-07-14T19:14:47.000Z</time></trkpt>
        <trkpt lat="27.2999648" lon="103.3193954"><ele>1924.46</ele><time>2026-07-14T19:14:49.000Z</time></trkpt>
        <trkpt lat="27.300006" lon="103.3192407"><ele>1922.63</ele><time>2026-07-14T19:14:51.000Z</time></trkpt>
        <trkpt lat="27.299941" lon="103.319075"><ele>1921.19</ele><time>2026-07-14T19:14:53.000Z</time></trkpt>
        <trkpt lat="27.2998107" lon="103.3188962"><ele>1919.56</ele><time>2026-07-14T19:14:55.000Z</time></trkpt>
        <trkpt lat="27.2996364" lon="103.3187352"><ele>1917.76</ele><time>2026-07-14T19:14:57.000Z</time></trkpt>
        <trkpt lat="27.2994269" lon="103.318611"><ele>1915.71</ele><time>2026-07-14T19:14:59.000Z</time></trkpt>
        <trkpt lat="27.2992013" lon="103.3185148"><ele>1913.44</ele><time>2026-07-14T19:15:01.000Z</time></trkpt>
        <trkpt lat="27.2990465" lon="103.3184834"><ele>1912.14</ele><time>2026-07-14T19:15:03.000Z</time></trkpt>
        <trkpt lat="27.2989298" lon="103.3184744"><ele>1910.01</ele><time>2026-07-14T19:15:05.000Z</time></trkpt>
        <trkpt lat="27.2988526" lon="103.31848"><ele>1908.41</ele><time>2026-07-14T19:15:09.000Z</time></trkpt>
        <trkpt lat="27.2987723" lon="103.3185106"><ele>1906.72</ele><time>2026-07-14T19:15:25.000Z</time></trkpt>
        <trkpt lat="27.2986941" lon="103.3185545"><ele>1906.51</ele><time>2026-07-14T19:17:05.000Z</time></trkpt>
        <trkpt lat="27.2985993" lon="103.3185848"><ele>1903.93</ele><time>2026-07-14T19:17:13.000Z</time></trkpt>
        <trkpt lat="27.2984428" lon="103.318598"><ele>1903.75</ele><time>2026-07-14T19:17:59.000Z</time></trkpt>
        <trkpt lat="27.2982867" lon="103.31862"><ele>1905.05</ele><time>2026-07-14T19:18:01.000Z</time></trkpt>
        <trkpt lat="27.298142" lon="103.3186338"><ele>1904.63</ele><time>2026-07-14T19:18:03.000Z</time></trkpt>
        <trkpt lat="27.2979938" lon="103.3186387"><ele>1904.37</ele><time>2026-07-14T19:18:07.000Z</time></trkpt>
        <trkpt lat="27.2978408" lon="103.318654"><ele>1904</ele><time>2026-07-14T19:18:11.000Z</time></trkpt>
        <trkpt lat="27.2977503" lon="103.318649"><ele>1902.96</ele><time>2026-07-14T19:18:17.000Z</time></trkpt>
        <trkpt lat="27.2976506" lon="103.3185862"><ele>1901.32</ele><time>2026-07-14T19:20:42.000Z</time></trkpt>
        <trkpt lat="27.2976566" lon="103.3184576"><ele>1900.81</ele><time>2026-07-14T19:20:44.000Z</time></trkpt>
        <trkpt lat="27.2977821" lon="103.3183915"><ele>1900.07</ele><time>2026-07-14T19:20:48.000Z</time></trkpt>
        <trkpt lat="27.2978289" lon="103.3183796"><ele>1898.57</ele><time>2026-07-14T19:20:52.000Z</time></trkpt>
        <trkpt lat="27.2979136" lon="103.3183906"><ele>1897.83</ele><time>2026-07-14T19:22:23.000Z</time></trkpt>
        <trkpt lat="27.2979619" lon="103.3183195"><ele>1896.42</ele><time>2026-07-14T19:22:33.000Z</time></trkpt>
        <trkpt lat="27.298045" lon="103.3183321"><ele>1895.08</ele><time>2026-07-14T19:22:49.000Z</time></trkpt>
        <trkpt lat="27.2980781" lon="103.3183429"><ele>1895.29</ele><time>2026-07-14T19:22:52.000Z</time></trkpt>
        <trkpt lat="27.2981626" lon="103.3183273"><ele>1894.22</ele><time>2026-07-14T19:24:47.000Z</time></trkpt>
        <trkpt lat="27.2982679" lon="103.3183229"><ele>1893.61</ele><time>2026-07-14T19:24:57.000Z</time></trkpt>
        <trkpt lat="27.2983594" lon="103.3182964"><ele>1893.14</ele><time>2026-07-14T19:25:07.000Z</time></trkpt>
        <trkpt lat="27.2984561" lon="103.3182765"><ele>1892.55</ele><time>2026-07-14T19:25:35.000Z</time></trkpt>
        <trkpt lat="27.2984942" lon="103.3182627"><ele>1892.44</ele><time>2026-07-14T19:25:37.000Z</time></trkpt>
        <trkpt lat="27.2985626" lon="103.3182273"><ele>1892.35</ele><time>2026-07-14T19:26:41.000Z</time></trkpt>
        <trkpt lat="27.2986534" lon="103.3182092"><ele>1893.89</ele><time>2026-07-14T19:26:51.000Z</time></trkpt>
        <trkpt lat="27.2987377" lon="103.3181688"><ele>1893.42</ele><time>2026-07-14T19:27:20.000Z</time></trkpt>
        <trkpt lat="27.2988632" lon="103.3181391"><ele>1894.15</ele><time>2026-07-14T19:27:42.000Z</time></trkpt>
        <trkpt lat="27.2989634" lon="103.3181204"><ele>1892.25</ele><time>2026-07-14T19:27:48.000Z</time></trkpt>
        <trkpt lat="27.2990819" lon="103.3180751"><ele>1891.83</ele><time>2026-07-14T19:28:00.000Z</time></trkpt>
        <trkpt lat="27.2991571" lon="103.3179444"><ele>1891.86</ele><time>2026-07-14T19:28:06.000Z</time></trkpt>
        <trkpt lat="27.2991532" lon="103.3178168"><ele>1891.93</ele><time>2026-07-14T19:28:08.000Z</time></trkpt>
        <trkpt lat="27.2991236" lon="103.317676"><ele>1891.92</ele><time>2026-07-14T19:28:10.000Z</time></trkpt>
        <trkpt lat="27.299085" lon="103.3175083"><ele>1891.68</ele><time>2026-07-14T19:28:12.000Z</time></trkpt>
        <trkpt lat="27.2990471" lon="103.3173404"><ele>1891.38</ele><time>2026-07-14T19:28:14.000Z</time></trkpt>
        <trkpt lat="27.2989886" lon="103.3172"><ele>1891.1</ele><time>2026-07-14T19:28:16.000Z</time></trkpt>
        <trkpt lat="27.2988904" lon="103.3171166"><ele>1890.8</ele><time>2026-07-14T19:28:18.000Z</time></trkpt>
        <trkpt lat="27.2987742" lon="103.3170715"><ele>1890.68</ele><time>2026-07-14T19:28:20.000Z</time></trkpt>
        <trkpt lat="27.2986504" lon="103.3170287"><ele>1890.16</ele><time>2026-07-14T19:28:22.000Z</time></trkpt>
        <trkpt lat="27.2985129" lon="103.3169681"><ele>1889.51</ele><time>2026-07-14T19:28:24.000Z</time></trkpt>
        <trkpt lat="27.2983645" lon="103.316882"><ele>1888.36</ele><time>2026-07-14T19:28:26.000Z</time></trkpt>
        <trkpt lat="27.2982163" lon="103.3167748"><ele>1886.62</ele><time>2026-07-14T19:28:28.000Z</time></trkpt>
        <trkpt lat="27.2980892" lon="103.3166446"><ele>1885.14</ele><time>2026-07-14T19:28:30.000Z</time></trkpt>
        <trkpt lat="27.29799" lon="103.316496"><ele>1883.93</ele><time>2026-07-14T19:28:32.000Z</time></trkpt>
        <trkpt lat="27.297913" lon="103.3163304"><ele>1882.69</ele><time>2026-07-14T19:28:34.000Z</time></trkpt>
        <trkpt lat="27.297857" lon="103.3161322"><ele>1881.37</ele><time>2026-07-14T19:28:36.000Z</time></trkpt>
        <trkpt lat="27.2977687" lon="103.3159416"><ele>1879.67</ele><time>2026-07-14T19:28:38.000Z</time></trkpt>
        <trkpt lat="27.2976334" lon="103.3157976"><ele>1878.41</ele><time>2026-07-14T19:28:40.000Z</time></trkpt>
        <trkpt lat="27.297463" lon="103.3156836"><ele>1877.21</ele><time>2026-07-14T19:28:42.000Z</time></trkpt>
        <trkpt lat="27.2972914" lon="103.3155639"><ele>1875.27</ele><time>2026-07-14T19:28:44.000Z</time></trkpt>
        <trkpt lat="27.2971245" lon="103.3154259"><ele>1873.53</ele><time>2026-07-14T19:28:46.000Z</time></trkpt>
        <trkpt lat="27.2969619" lon="103.3152723"><ele>1871.8</ele><time>2026-07-14T19:28:48.000Z</time></trkpt>
        <trkpt lat="27.2967843" lon="103.3151376"><ele>1870.44</ele><time>2026-07-14T19:28:50.000Z</time></trkpt>
        <trkpt lat="27.2965857" lon="103.3150306"><ele>1868.73</ele><time>2026-07-14T19:28:52.000Z</time></trkpt>
        <trkpt lat="27.296382" lon="103.3149308"><ele>1867.51</ele><time>2026-07-14T19:28:54.000Z</time></trkpt>
        <trkpt lat="27.2961907" lon="103.3148281"><ele>1866.12</ele><time>2026-07-14T19:28:56.000Z</time></trkpt>
        <trkpt lat="27.2960223" lon="103.3147028"><ele>1865.02</ele><time>2026-07-14T19:28:58.000Z</time></trkpt>
        <trkpt lat="27.2958885" lon="103.3145425"><ele>1864.02</ele><time>2026-07-14T19:29:00.000Z</time></trkpt>
        <trkpt lat="27.2957887" lon="103.3143652"><ele>1863.09</ele><time>2026-07-14T19:29:02.000Z</time></trkpt>
        <trkpt lat="27.2957038" lon="103.3142029"><ele>1862.51</ele><time>2026-07-14T19:29:04.000Z</time></trkpt>
        <trkpt lat="27.2956246" lon="103.3140784"><ele>1861.27</ele><time>2026-07-14T19:29:06.000Z</time></trkpt>
        <trkpt lat="27.2955555" lon="103.3139813"><ele>1860.86</ele><time>2026-07-14T19:29:08.000Z</time></trkpt>
        <trkpt lat="27.2955044" lon="103.3138982"><ele>1860.08</ele><time>2026-07-14T19:29:14.000Z</time></trkpt>
        <trkpt lat="27.295432" lon="103.3138249"><ele>1859.18</ele><time>2026-07-14T19:29:46.000Z</time></trkpt>
        <trkpt lat="27.2953492" lon="103.3137416"><ele>1859.13</ele><time>2026-07-14T19:29:48.000Z</time></trkpt>
        <trkpt lat="27.2952443" lon="103.3136305"><ele>1858.49</ele><time>2026-07-14T19:29:50.000Z</time></trkpt>
        <trkpt lat="27.295115" lon="103.3134905"><ele>1857.48</ele><time>2026-07-14T19:29:52.000Z</time></trkpt>
        <trkpt lat="27.2949652" lon="103.3133115"><ele>1856.46</ele><time>2026-07-14T19:29:54.000Z</time></trkpt>
        <trkpt lat="27.2948109" lon="103.313101"><ele>1855.09</ele><time>2026-07-14T19:29:56.000Z</time></trkpt>
        <trkpt lat="27.2946566" lon="103.3128895"><ele>1853.32</ele><time>2026-07-14T19:29:58.000Z</time></trkpt>
        <trkpt lat="27.2945362" lon="103.3126719"><ele>1851.71</ele><time>2026-07-14T19:30:00.000Z</time></trkpt>
        <trkpt lat="27.2944501" lon="103.3124611"><ele>1850.21</ele><time>2026-07-14T19:30:02.000Z</time></trkpt>
        <trkpt lat="27.2943716" lon="103.3122507"><ele>1848.71</ele><time>2026-07-14T19:30:04.000Z</time></trkpt>
        <trkpt lat="27.2942684" lon="103.3120497"><ele>1847.19</ele><time>2026-07-14T19:30:06.000Z</time></trkpt>
        <trkpt lat="27.2941473" lon="103.311858"><ele>1845.65</ele><time>2026-07-14T19:30:08.000Z</time></trkpt>
        <trkpt lat="27.2940242" lon="103.3116789"><ele>1844.19</ele><time>2026-07-14T19:30:10.000Z</time></trkpt>
        <trkpt lat="27.2939304" lon="103.3115428"><ele>1843.08</ele><time>2026-07-14T19:30:12.000Z</time></trkpt>
        <trkpt lat="27.2938693" lon="103.3114488"><ele>1841.86</ele><time>2026-07-14T19:30:16.000Z</time></trkpt>
        <trkpt lat="27.2938997" lon="103.3115021"><ele>1841.08</ele><time>2026-07-14T19:30:28.000Z</time></trkpt>
        <trkpt lat="27.2939277" lon="103.3115659"><ele>1839.96</ele><time>2026-07-14T19:30:34.000Z</time></trkpt>
        <trkpt lat="27.2938681" lon="103.3115487"><ele>1839.59</ele><time>2026-07-14T19:32:59.000Z</time></trkpt>
        <trkpt lat="27.2938868" lon="103.3114765"><ele>1841.44</ele><time>2026-07-14T19:33:17.000Z</time></trkpt>
        <trkpt lat="27.2938077" lon="103.311343"><ele>1840.95</ele><time>2026-07-14T19:33:27.000Z</time></trkpt>
        <trkpt lat="27.2937368" lon="103.311245"><ele>1840.06</ele><time>2026-07-14T19:33:29.000Z</time></trkpt>
        <trkpt lat="27.2936551" lon="103.3111573"><ele>1839.1</ele><time>2026-07-14T19:33:31.000Z</time></trkpt>
        <trkpt lat="27.2935648" lon="103.3110704"><ele>1837.83</ele><time>2026-07-14T19:33:33.000Z</time></trkpt>
        <trkpt lat="27.2934605" lon="103.310979"><ele>1836.65</ele><time>2026-07-14T19:33:35.000Z</time></trkpt>
        <trkpt lat="27.2933419" lon="103.3108742"><ele>1835.52</ele><time>2026-07-14T19:33:37.000Z</time></trkpt>
        <trkpt lat="27.2932036" lon="103.3107561"><ele>1834.36</ele><time>2026-07-14T19:33:39.000Z</time></trkpt>
        <trkpt lat="27.2930494" lon="103.310627"><ele>1833.04</ele><time>2026-07-14T19:33:41.000Z</time></trkpt>
        <trkpt lat="27.292887" lon="103.3104915"><ele>1831.63</ele><time>2026-07-14T19:33:43.000Z</time></trkpt>
        <trkpt lat="27.2927249" lon="103.3103469"><ele>1830.31</ele><time>2026-07-14T19:33:45.000Z</time></trkpt>
        <trkpt lat="27.2925708" lon="103.3102141"><ele>1828.99</ele><time>2026-07-14T19:33:47.000Z</time></trkpt>
        <trkpt lat="27.2924306" lon="103.3100916"><ele>1827.52</ele><time>2026-07-14T19:33:49.000Z</time></trkpt>
        <trkpt lat="27.2923018" lon="103.3099728"><ele>1826.08</ele><time>2026-07-14T19:33:51.000Z</time></trkpt>
        <trkpt lat="27.2921805" lon="103.3098483"><ele>1824.94</ele><time>2026-07-14T19:33:53.000Z</time></trkpt>
        <trkpt lat="27.29207" lon="103.3097054"><ele>1824.12</ele><time>2026-07-14T19:33:55.000Z</time></trkpt>
        <trkpt lat="27.2919779" lon="103.3095388"><ele>1823.3</ele><time>2026-07-14T19:33:57.000Z</time></trkpt>
        <trkpt lat="27.2919018" lon="103.3093493"><ele>1822.27</ele><time>2026-07-14T19:33:59.000Z</time></trkpt>
        <trkpt lat="27.2918432" lon="103.3091518"><ele>1821.15</ele><time>2026-07-14T19:34:01.000Z</time></trkpt>
        <trkpt lat="27.2918078" lon="103.3089219"><ele>1819.71</ele><time>2026-07-14T19:34:03.000Z</time></trkpt>
        <trkpt lat="27.2917925" lon="103.3086847"><ele>1817.74</ele><time>2026-07-14T19:34:05.000Z</time></trkpt>
        <trkpt lat="27.2917751" lon="103.3084558"><ele>1815.96</ele><time>2026-07-14T19:34:07.000Z</time></trkpt>
        <trkpt lat="27.2917442" lon="103.3082339"><ele>1814.28</ele><time>2026-07-14T19:34:09.000Z</time></trkpt>
        <trkpt lat="27.2916871" lon="103.3080268"><ele>1812.5</ele><time>2026-07-14T19:34:11.000Z</time></trkpt>
        <trkpt lat="27.291578" lon="103.3078409"><ele>1811.4</ele><time>2026-07-14T19:34:13.000Z</time></trkpt>
        <trkpt lat="27.2914472" lon="103.307699"><ele>1810.38</ele><time>2026-07-14T19:34:15.000Z</time></trkpt>
        <trkpt lat="27.2913355" lon="103.3076053"><ele>1809.22</ele><time>2026-07-14T19:34:17.000Z</time></trkpt>
        <trkpt lat="27.2912624" lon="103.3075382"><ele>1808.4</ele><time>2026-07-14T19:34:25.000Z</time></trkpt>
        <trkpt lat="27.2911767" lon="103.3075171"><ele>1807.24</ele><time>2026-07-14T19:35:34.000Z</time></trkpt>
        <trkpt lat="27.2910913" lon="103.3074731"><ele>1808.35</ele><time>2026-07-14T19:35:48.000Z</time></trkpt>
        <trkpt lat="27.2910265" lon="103.3074005"><ele>1808.22</ele><time>2026-07-14T19:36:28.000Z</time></trkpt>
        <trkpt lat="27.2909029" lon="103.3072908"><ele>1807.11</ele><time>2026-07-14T19:38:11.000Z</time></trkpt>
        <trkpt lat="27.2908195" lon="103.3072191"><ele>1805.7</ele><time>2026-07-14T19:38:13.000Z</time></trkpt>
        <trkpt lat="27.2907213" lon="103.3071444"><ele>1804.24</ele><time>2026-07-14T19:38:15.000Z</time></trkpt>
        <trkpt lat="27.2906321" lon="103.307066"><ele>1803.14</ele><time>2026-07-14T19:38:19.000Z</time></trkpt>
        <trkpt lat="27.2905407" lon="103.3070026"><ele>1801.55</ele><time>2026-07-14T19:38:23.000Z</time></trkpt>
        <trkpt lat="27.2903926" lon="103.3069073"><ele>1800.89</ele><time>2026-07-14T19:38:27.000Z</time></trkpt>
        <trkpt lat="27.2902796" lon="103.3068324"><ele>1800.74</ele><time>2026-07-14T19:38:29.000Z</time></trkpt>
        <trkpt lat="27.2901745" lon="103.3067686"><ele>1800.57</ele><time>2026-07-14T19:38:31.000Z</time></trkpt>
        <trkpt lat="27.2900776" lon="103.306699"><ele>1800.24</ele><time>2026-07-14T19:38:33.000Z</time></trkpt>
        <trkpt lat="27.289981" lon="103.3066293"><ele>1799.89</ele><time>2026-07-14T19:38:35.000Z</time></trkpt>
        <trkpt lat="27.2898844" lon="103.3065514"><ele>1799.43</ele><time>2026-07-14T19:38:37.000Z</time></trkpt>
        <trkpt lat="27.2897814" lon="103.3064746"><ele>1798.88</ele><time>2026-07-14T19:38:39.000Z</time></trkpt>
        <trkpt lat="27.2896668" lon="103.3063671"><ele>1798.58</ele><time>2026-07-14T19:38:41.000Z</time></trkpt>
        <trkpt lat="27.2895386" lon="103.3062679"><ele>1797.39</ele><time>2026-07-14T19:38:43.000Z</time></trkpt>
        <trkpt lat="27.289398" lon="103.3061865"><ele>1796.77</ele><time>2026-07-14T19:38:45.000Z</time></trkpt>
        <trkpt lat="27.2892639" lon="103.306107"><ele>1795.64</ele><time>2026-07-14T19:38:47.000Z</time></trkpt>
        <trkpt lat="27.2891623" lon="103.3060192"><ele>1794.37</ele><time>2026-07-14T19:38:49.000Z</time></trkpt>
        <trkpt lat="27.2890938" lon="103.3058962"><ele>1793.19</ele><time>2026-07-14T19:38:51.000Z</time></trkpt>
        <trkpt lat="27.2890518" lon="103.3057453"><ele>1791.97</ele><time>2026-07-14T19:38:53.000Z</time></trkpt>
        <trkpt lat="27.2890275" lon="103.3055654"><ele>1790.64</ele><time>2026-07-14T19:38:55.000Z</time></trkpt>
        <trkpt lat="27.288997" lon="103.3053652"><ele>1788.77</ele><time>2026-07-14T19:38:57.000Z</time></trkpt>
        <trkpt lat="27.2889457" lon="103.3051515"><ele>1786.88</ele><time>2026-07-14T19:38:59.000Z</time></trkpt>
        <trkpt lat="27.2888789" lon="103.3049227"><ele>1785.25</ele><time>2026-07-14T19:39:01.000Z</time></trkpt>
        <trkpt lat="27.2888066" lon="103.3047026"><ele>1783.14</ele><time>2026-07-14T19:39:03.000Z</time></trkpt>
        <trkpt lat="27.2887491" lon="103.3045025"><ele>1781.26</ele><time>2026-07-14T19:39:05.000Z</time></trkpt>
        <trkpt lat="27.2886751" lon="103.3042908"><ele>1779.62</ele><time>2026-07-14T19:39:07.000Z</time></trkpt>
        <trkpt lat="27.2885733" lon="103.3040766"><ele>1777.6</ele><time>2026-07-14T19:39:09.000Z</time></trkpt>
        <trkpt lat="27.2884647" lon="103.3038614"><ele>1775.5</ele><time>2026-07-14T19:39:11.000Z</time></trkpt>
        <trkpt lat="27.2883392" lon="103.3036641"><ele>1773.73</ele><time>2026-07-14T19:39:13.000Z</time></trkpt>
        <trkpt lat="27.2882298" lon="103.3034941"><ele>1771.41</ele><time>2026-07-14T19:39:15.000Z</time></trkpt>
        <trkpt lat="27.2881524" lon="103.3033539"><ele>1769.53</ele><time>2026-07-14T19:39:17.000Z</time></trkpt>
        <trkpt lat="27.288086" lon="103.3033013"><ele>1768.41</ele><time>2026-07-14T19:39:47.000Z</time></trkpt>
        <trkpt lat="27.2880658" lon="103.3032163"><ele>1768.38</ele><time>2026-07-14T19:41:38.000Z</time></trkpt>
        <trkpt lat="27.2880128" lon="103.3031326"><ele>1769.33</ele><time>2026-07-14T19:42:06.000Z</time></trkpt>
        <trkpt lat="27.2879734" lon="103.303033"><ele>1767.74</ele><time>2026-07-14T19:42:16.000Z</time></trkpt>
        <trkpt lat="27.2879696" lon="103.3029211"><ele>1766.88</ele><time>2026-07-14T19:42:26.000Z</time></trkpt>
        <trkpt lat="27.2879807" lon="103.3028691"><ele>1765.19</ele><time>2026-07-14T19:42:30.000Z</time></trkpt>
        <trkpt lat="27.2879569" lon="103.3027845"><ele>1765.04</ele><time>2026-07-14T19:43:12.000Z</time></trkpt>
        <trkpt lat="27.2879155" lon="103.3026573"><ele>1763.79</ele><time>2026-07-14T19:43:16.000Z</time></trkpt>
        <trkpt lat="27.2878967" lon="103.3025302"><ele>1762.92</ele><time>2026-07-14T19:43:18.000Z</time></trkpt>
        <trkpt lat="27.2878835" lon="103.3023937"><ele>1761.81</ele><time>2026-07-14T19:43:20.000Z</time></trkpt>
        <trkpt lat="27.287849" lon="103.3022578"><ele>1762.74</ele><time>2026-07-14T19:43:22.000Z</time></trkpt>
        <trkpt lat="27.2878153" lon="103.3021013"><ele>1763.46</ele><time>2026-07-14T19:43:24.000Z</time></trkpt>
        <trkpt lat="27.287795" lon="103.3019238"><ele>1763.05</ele><time>2026-07-14T19:43:26.000Z</time></trkpt>
        <trkpt lat="27.2877851" lon="103.3017331"><ele>1762.46</ele><time>2026-07-14T19:43:28.000Z</time></trkpt>
        <trkpt lat="27.2877638" lon="103.3015389"><ele>1761.52</ele><time>2026-07-14T19:43:30.000Z</time></trkpt>
        <trkpt lat="27.28773" lon="103.3013478"><ele>1760.55</ele><time>2026-07-14T19:43:32.000Z</time></trkpt>
        <trkpt lat="27.2876926" lon="103.3011658"><ele>1759.73</ele><time>2026-07-14T19:43:34.000Z</time></trkpt>
        <trkpt lat="27.2876547" lon="103.3010042"><ele>1758.98</ele><time>2026-07-14T19:43:36.000Z</time></trkpt>
        <trkpt lat="27.2876188" lon="103.3008651"><ele>1758.51</ele><time>2026-07-14T19:43:38.000Z</time></trkpt>
        <trkpt lat="27.2875431" lon="103.3007659"><ele>1758.33</ele><time>2026-07-14T19:43:40.000Z</time></trkpt>
        <trkpt lat="27.2874333" lon="103.3007806"><ele>1757.63</ele><time>2026-07-14T19:43:42.000Z</time></trkpt>
        <trkpt lat="27.2873586" lon="103.3009164"><ele>1756.41</ele><time>2026-07-14T19:43:44.000Z</time></trkpt>
        <trkpt lat="27.2873711" lon="103.3011104"><ele>1754.95</ele><time>2026-07-14T19:43:46.000Z</time></trkpt>
        <trkpt lat="27.2873979" lon="103.3013001"><ele>1752.94</ele><time>2026-07-14T19:43:48.000Z</time></trkpt>
        <trkpt lat="27.2874159" lon="103.3014131"><ele>1750.82</ele><time>2026-07-14T19:43:52.000Z</time></trkpt>
        <trkpt lat="27.2874368" lon="103.3015029"><ele>1749.34</ele><time>2026-07-14T19:45:21.000Z</time></trkpt>
        <trkpt lat="27.2874454" lon="103.3015122"><ele>1747.18</ele><time>2026-07-14T19:45:23.000Z</time></trkpt>
        <trkpt lat="27.287476" lon="103.3016113"><ele>1746.02</ele><time>2026-07-14T19:45:43.000Z</time></trkpt>
        <trkpt lat="27.2874867" lon="103.301656"><ele>1745.63</ele><time>2026-07-14T19:45:47.000Z</time></trkpt>
        <trkpt lat="27.2874797" lon="103.3017567"><ele>1744.92</ele><time>2026-07-14T19:46:17.000Z</time></trkpt>
        <trkpt lat="27.28747" lon="103.3018785"><ele>1742.36</ele><time>2026-07-14T19:46:27.000Z</time></trkpt>
        <trkpt lat="27.2874638" lon="103.3019939"><ele>1742.28</ele><time>2026-07-14T19:46:37.000Z</time></trkpt>
        <trkpt lat="27.2874551" lon="103.3021222"><ele>1742.33</ele><time>2026-07-14T19:46:45.000Z</time></trkpt>
        <trkpt lat="27.2874553" lon="103.3022562"><ele>1742.68</ele><time>2026-07-14T19:47:01.000Z</time></trkpt>
        <trkpt lat="27.2874837" lon="103.3023387"><ele>1742.6</ele><time>2026-07-14T19:47:11.000Z</time></trkpt>
        <trkpt lat="27.2874921" lon="103.3024328"><ele>1742.06</ele><time>2026-07-14T19:48:28.000Z</time></trkpt>
        <trkpt lat="27.2874831" lon="103.3025421"><ele>1741.57</ele><time>2026-07-14T19:49:55.000Z</time></trkpt>
        <trkpt lat="27.2875011" lon="103.302649"><ele>1740.91</ele><time>2026-07-14T19:50:13.000Z</time></trkpt>
        <trkpt lat="27.2875123" lon="103.3026718"><ele>1740.86</ele><time>2026-07-14T19:50:15.000Z</time></trkpt>
        <trkpt lat="27.2874819" lon="103.3028273"><ele>1740.43</ele><time>2026-07-14T19:52:19.000Z</time></trkpt>
        <trkpt lat="27.2874837" lon="103.303048"><ele>1739.45</ele><time>2026-07-14T19:52:23.000Z</time></trkpt>
        <trkpt lat="27.2874873" lon="103.3031892"><ele>1738.36</ele><time>2026-07-14T19:52:25.000Z</time></trkpt>
        <trkpt lat="27.2874891" lon="103.303324"><ele>1737.57</ele><time>2026-07-14T19:52:27.000Z</time></trkpt>
        <trkpt lat="27.2874937" lon="103.30346"><ele>1737.01</ele><time>2026-07-14T19:52:29.000Z</time></trkpt>
        <trkpt lat="27.287513" lon="103.3035973"><ele>1736.69</ele><time>2026-07-14T19:52:31.000Z</time></trkpt>
        <trkpt lat="27.2875373" lon="103.3037299"><ele>1736.23</ele><time>2026-07-14T19:52:33.000Z</time></trkpt>
        <trkpt lat="27.2875576" lon="103.3038635"><ele>1735.64</ele><time>2026-07-14T19:52:35.000Z</time></trkpt>
        <trkpt lat="27.2875706" lon="103.3040174"><ele>1734.72</ele><time>2026-07-14T19:52:37.000Z</time></trkpt>
        <trkpt lat="27.2875689" lon="103.3041795"><ele>1733.6</ele><time>2026-07-14T19:52:39.000Z</time></trkpt>
        <trkpt lat="27.2875418" lon="103.3043467"><ele>1732.94</ele><time>2026-07-14T19:52:41.000Z</time></trkpt>
        <trkpt lat="27.287517" lon="103.3045375"><ele>1732.22</ele><time>2026-07-14T19:52:43.000Z</time></trkpt>
        <trkpt lat="27.2875114" lon="103.304716"><ele>1732.78</ele><time>2026-07-14T19:52:45.000Z</time></trkpt>
        <trkpt lat="27.2875031" lon="103.3049014"><ele>1731.95</ele><time>2026-07-14T19:52:47.000Z</time></trkpt>
        <trkpt lat="27.2874955" lon="103.3050835"><ele>1732.12</ele><time>2026-07-14T19:52:49.000Z</time></trkpt>
        <trkpt lat="27.2874924" lon="103.3052612"><ele>1731.18</ele><time>2026-07-14T19:52:51.000Z</time></trkpt>
        <trkpt lat="27.2876161" lon="103.3053946"><ele>1730.6</ele><time>2026-07-14T19:52:53.000Z</time></trkpt>
        <trkpt lat="27.2877149" lon="103.3055501"><ele>1730.34</ele><time>2026-07-14T19:52:55.000Z</time></trkpt>
        <trkpt lat="27.287767" lon="103.3057178"><ele>1730.81</ele><time>2026-07-14T19:52:57.000Z</time></trkpt>
        <trkpt lat="27.2877856" lon="103.305883"><ele>1731.55</ele><time>2026-07-14T19:52:59.000Z</time></trkpt>
        <trkpt lat="27.2877783" lon="103.3060414"><ele>1732.71</ele><time>2026-07-14T19:53:01.000Z</time></trkpt>
        <trkpt lat="27.2877552" lon="103.3061884"><ele>1733.63</ele><time>2026-07-14T19:53:03.000Z</time></trkpt>
        <trkpt lat="27.2877303" lon="103.3063322"><ele>1734.57</ele><time>2026-07-14T19:53:05.000Z</time></trkpt>
        <trkpt lat="27.2877035" lon="103.3064892"><ele>1735.04</ele><time>2026-07-14T19:53:07.000Z</time></trkpt>
        <trkpt lat="27.2876751" lon="103.3066658"><ele>1735.23</ele><time>2026-07-14T19:53:09.000Z</time></trkpt>
        <trkpt lat="27.2876441" lon="103.3068566"><ele>1735.01</ele><time>2026-07-14T19:53:11.000Z</time></trkpt>
        <trkpt lat="27.2876124" lon="103.3070586"><ele>1734.45</ele><time>2026-07-14T19:53:13.000Z</time></trkpt>
        <trkpt lat="27.2876129" lon="103.3072673"><ele>1734</ele><time>2026-07-14T19:53:15.000Z</time></trkpt>
        <trkpt lat="27.2876601" lon="103.3074641"><ele>1733.12</ele><time>2026-07-14T19:53:17.000Z</time></trkpt>
        <trkpt lat="27.2877198" lon="103.3076593"><ele>1732.81</ele><time>2026-07-14T19:53:19.000Z</time></trkpt>
        <trkpt lat="27.2877642" lon="103.3078724"><ele>1732.51</ele><time>2026-07-14T19:53:21.000Z</time></trkpt>
        <trkpt lat="27.2878028" lon="103.3080932"><ele>1732.21</ele><time>2026-07-14T19:53:23.000Z</time></trkpt>
        <trkpt lat="27.2878452" lon="103.3083153"><ele>1731.95</ele><time>2026-07-14T19:53:25.000Z</time></trkpt>
        <trkpt lat="27.2879162" lon="103.3085095"><ele>1731.92</ele><time>2026-07-14T19:53:27.000Z</time></trkpt>
        <trkpt lat="27.2880237" lon="103.3086682"><ele>1731.34</ele><time>2026-07-14T19:53:29.000Z</time></trkpt>
        <trkpt lat="27.2881304" lon="103.3088231"><ele>1730.21</ele><time>2026-07-14T19:53:31.000Z</time></trkpt>
        <trkpt lat="27.2882294" lon="103.3089716"><ele>1729.48</ele><time>2026-07-14T19:53:33.000Z</time></trkpt>
        <trkpt lat="27.2883212" lon="103.3091067"><ele>1728.93</ele><time>2026-07-14T19:53:35.000Z</time></trkpt>
        <trkpt lat="27.2883785" lon="103.3092095"><ele>1728.62</ele><time>2026-07-14T19:53:37.000Z</time></trkpt>
        <trkpt lat="27.288411" lon="103.3093051"><ele>1728.23</ele><time>2026-07-14T19:53:41.000Z</time></trkpt>
        <trkpt lat="27.2884973" lon="103.3093337"><ele>1728.14</ele><time>2026-07-14T19:54:00.000Z</time></trkpt>
        <trkpt lat="27.2885144" lon="103.3093336"><ele>1727.47</ele><time>2026-07-14T19:54:01.000Z</time></trkpt>
        <trkpt lat="27.2885104" lon="103.30943"><ele>1727.38</ele><time>2026-07-14T19:56:36.000Z</time></trkpt>
        <trkpt lat="27.2885533" lon="103.3095247"><ele>1726.2</ele><time>2026-07-14T19:56:46.000Z</time></trkpt>
        <trkpt lat="27.2885931" lon="103.3095959"><ele>1725.33</ele><time>2026-07-14T19:56:56.000Z</time></trkpt>
        <trkpt lat="27.2886203" lon="103.3097181"><ele>1724.74</ele><time>2026-07-14T19:58:26.000Z</time></trkpt>
        <trkpt lat="27.2885521" lon="103.3098065"><ele>1724.87</ele><time>2026-07-14T19:58:28.000Z</time></trkpt>
        <trkpt lat="27.2884477" lon="103.3098478"><ele>1724.61</ele><time>2026-07-14T19:58:30.000Z</time></trkpt>
        <trkpt lat="27.288356" lon="103.3097799"><ele>1723.9</ele><time>2026-07-14T19:58:32.000Z</time></trkpt>
        <trkpt lat="27.2882716" lon="103.3096465"><ele>1722.66</ele><time>2026-07-14T19:58:34.000Z</time></trkpt>
        <trkpt lat="27.2881961" lon="103.309513"><ele>1721.86</ele><time>2026-07-14T19:58:36.000Z</time></trkpt>
        <trkpt lat="27.2881084" lon="103.3093886"><ele>1721.19</ele><time>2026-07-14T19:58:38.000Z</time></trkpt>
        <trkpt lat="27.2880155" lon="103.3092596"><ele>1720.37</ele><time>2026-07-14T19:58:40.000Z</time></trkpt>
        <trkpt lat="27.2879154" lon="103.3091018"><ele>1719.63</ele><time>2026-07-14T19:58:42.000Z</time></trkpt>
        <trkpt lat="27.2878119" lon="103.308922"><ele>1718.89</ele><time>2026-07-14T19:58:44.000Z</time></trkpt>
        <trkpt lat="27.2876972" lon="103.308741"><ele>1718.57</ele><time>2026-07-14T19:58:46.000Z</time></trkpt>
        <trkpt lat="27.2875988" lon="103.3085419"><ele>1718.38</ele><time>2026-07-14T19:58:48.000Z</time></trkpt>
        <trkpt lat="27.2875397" lon="103.3083088"><ele>1717.47</ele><time>2026-07-14T19:58:50.000Z</time></trkpt>
        <trkpt lat="27.2874969" lon="103.3080942"><ele>1716.71</ele><time>2026-07-14T19:58:52.000Z</time></trkpt>
        <trkpt lat="27.2874579" lon="103.307934"><ele>1715.85</ele><time>2026-07-14T19:58:54.000Z</time></trkpt>
        <trkpt lat="27.2874373" lon="103.3077983"><ele>1715.33</ele><time>2026-07-14T19:58:56.000Z</time></trkpt>
        <trkpt lat="27.2874141" lon="103.3076697"><ele>1714.4</ele><time>2026-07-14T19:58:58.000Z</time></trkpt>
        <trkpt lat="27.2873927" lon="103.3075378"><ele>1713.27</ele><time>2026-07-14T19:59:00.000Z</time></trkpt>
        <trkpt lat="27.2873599" lon="103.3073969"><ele>1712.17</ele><time>2026-07-14T19:59:02.000Z</time></trkpt>
        <trkpt lat="27.2873276" lon="103.3072264"><ele>1710.88</ele><time>2026-07-14T19:59:04.000Z</time></trkpt>
        <trkpt lat="27.2873266" lon="103.3070304"><ele>1709.7</ele><time>2026-07-14T19:59:06.000Z</time></trkpt>
        <trkpt lat="27.2873419" lon="103.3068322"><ele>1708.64</ele><time>2026-07-14T19:59:08.000Z</time></trkpt>
        <trkpt lat="27.2873577" lon="103.3066729"><ele>1708.24</ele><time>2026-07-14T19:59:10.000Z</time></trkpt>
        <trkpt lat="27.2873705" lon="103.3065346"><ele>1707.32</ele><time>2026-07-14T19:59:12.000Z</time></trkpt>
        <trkpt lat="27.2873776" lon="103.3064086"><ele>1707.47</ele><time>2026-07-14T19:59:14.000Z</time></trkpt>
        <trkpt lat="27.2873823" lon="103.3062944"><ele>1707.07</ele><time>2026-07-14T19:59:16.000Z</time></trkpt>
        <trkpt lat="27.2873892" lon="103.306181"><ele>1706.84</ele><time>2026-07-14T19:59:20.000Z</time></trkpt>
        <trkpt lat="27.2874112" lon="103.3060788"><ele>1707.65</ele><time>2026-07-14T19:59:22.000Z</time></trkpt>
        <trkpt lat="27.2874297" lon="103.3059681"><ele>1708.13</ele><time>2026-07-14T19:59:24.000Z</time></trkpt>
        <trkpt lat="27.2874442" lon="103.3058189"><ele>1708.13</ele><time>2026-07-14T19:59:27.000Z</time></trkpt>
        <trkpt lat="27.2874342" lon="103.3056203"><ele>1707.65</ele><time>2026-07-14T19:59:30.000Z</time></trkpt>
        <trkpt lat="27.2873938" lon="103.3054851"><ele>1706.71</ele><time>2026-07-14T19:59:32.000Z</time></trkpt>
        <trkpt lat="27.2873198" lon="103.305388"><ele>1706.31</ele><time>2026-07-14T19:59:34.000Z</time></trkpt>
        <trkpt lat="27.2872331" lon="103.3053175"><ele>1705.95</ele><time>2026-07-14T19:59:36.000Z</time></trkpt>
        <trkpt lat="27.2871482" lon="103.305247"><ele>1705.51</ele><time>2026-07-14T19:59:38.000Z</time></trkpt>
        <trkpt lat="27.2870969" lon="103.3051431"><ele>1705.11</ele><time>2026-07-14T19:59:40.000Z</time></trkpt>
        <trkpt lat="27.2870401" lon="103.3049527"><ele>1705.36</ele><time>2026-07-14T19:59:42.000Z</time></trkpt>
        <trkpt lat="27.2869817" lon="103.3047102"><ele>1704.85</ele><time>2026-07-14T19:59:44.000Z</time></trkpt>
        <trkpt lat="27.286911" lon="103.3044376"><ele>1704.13</ele><time>2026-07-14T19:59:46.000Z</time></trkpt>
        <trkpt lat="27.2868581" lon="103.3041409"><ele>1703.24</ele><time>2026-07-14T19:59:48.000Z</time></trkpt>
        <trkpt lat="27.2868268" lon="103.303827"><ele>1701.74</ele><time>2026-07-14T19:59:50.000Z</time></trkpt>
        <trkpt lat="27.2868027" lon="103.3035032"><ele>1700.04</ele><time>2026-07-14T19:59:52.000Z</time></trkpt>
        <trkpt lat="27.2867907" lon="103.3031737"><ele>1698.42</ele><time>2026-07-14T19:59:54.000Z</time></trkpt>
        <trkpt lat="27.2868006" lon="103.3028567"><ele>1696.47</ele><time>2026-07-14T19:59:56.000Z</time></trkpt>
        <trkpt lat="27.2868062" lon="103.3025797"><ele>1694.32</ele><time>2026-07-14T19:59:58.000Z</time></trkpt>
        <trkpt lat="27.2867967" lon="103.3023703"><ele>1692.23</ele><time>2026-07-14T20:00:00.000Z</time></trkpt>
        <trkpt lat="27.2867696" lon="103.3021778"><ele>1689.87</ele><time>2026-07-14T20:00:02.000Z</time></trkpt>
        <trkpt lat="27.2867313" lon="103.3019713"><ele>1688.06</ele><time>2026-07-14T20:00:04.000Z</time></trkpt>
        <trkpt lat="27.2866813" lon="103.3017373"><ele>1686.75</ele><time>2026-07-14T20:00:06.000Z</time></trkpt>
        <trkpt lat="27.2866346" lon="103.3014695"><ele>1685.3</ele><time>2026-07-14T20:00:08.000Z</time></trkpt>
        <trkpt lat="27.2865584" lon="103.3011802"><ele>1683.03</ele><time>2026-07-14T20:00:10.000Z</time></trkpt>
        <trkpt lat="27.2864564" lon="103.3008855"><ele>1680.76</ele><time>2026-07-14T20:00:12.000Z</time></trkpt>
        <trkpt lat="27.2863627" lon="103.3006015"><ele>1678.8</ele><time>2026-07-14T20:00:14.000Z</time></trkpt>
        <trkpt lat="27.28627" lon="103.3003335"><ele>1677.04</ele><time>2026-07-14T20:00:16.000Z</time></trkpt>
        <trkpt lat="27.2861872" lon="103.3001071"><ele>1675.6</ele><time>2026-07-14T20:00:18.000Z</time></trkpt>
        <trkpt lat="27.2861646" lon="103.2998444"><ele>1674.26</ele><time>2026-07-14T20:00:20.000Z</time></trkpt>
        <trkpt lat="27.2861472" lon="103.299604"><ele>1671.63</ele><time>2026-07-14T20:00:22.000Z</time></trkpt>
        <trkpt lat="27.2861334" lon="103.2994078"><ele>1669.58</ele><time>2026-07-14T20:00:24.000Z</time></trkpt>
        <trkpt lat="27.2861001" lon="103.299284"><ele>1668.29</ele><time>2026-07-14T20:00:26.000Z</time></trkpt>
        <trkpt lat="27.2860638" lon="103.2991585"><ele>1667.28</ele><time>2026-07-14T20:00:28.000Z</time></trkpt>
        <trkpt lat="27.2860155" lon="103.2990156"><ele>1665.78</ele><time>2026-07-14T20:00:30.000Z</time></trkpt>
        <trkpt lat="27.2859429" lon="103.2988582"><ele>1664.26</ele><time>2026-07-14T20:00:32.000Z</time></trkpt>
        <trkpt lat="27.2858536" lon="103.2986842"><ele>1662.1</ele><time>2026-07-14T20:00:34.000Z</time></trkpt>
        <trkpt lat="27.2857564" lon="103.2984949"><ele>1660.14</ele><time>2026-07-14T20:00:36.000Z</time></trkpt>
        <trkpt lat="27.285656" lon="103.2982864"><ele>1657.97</ele><time>2026-07-14T20:00:38.000Z</time></trkpt>
        <trkpt lat="27.2855671" lon="103.2980758"><ele>1656</ele><time>2026-07-14T20:00:40.000Z</time></trkpt>
        <trkpt lat="27.2855081" lon="103.2978722"><ele>1654.18</ele><time>2026-07-14T20:00:42.000Z</time></trkpt>
        <trkpt lat="27.2854855" lon="103.2977105"><ele>1653.65</ele><time>2026-07-14T20:00:46.000Z</time></trkpt>
        <trkpt lat="27.285465" lon="103.2975503"><ele>1652.33</ele><time>2026-07-14T20:00:50.000Z</time></trkpt>
        <trkpt lat="27.2854284" lon="103.2974361"><ele>1650.7</ele><time>2026-07-14T20:00:52.000Z</time></trkpt>
        <trkpt lat="27.2853985" lon="103.2973338"><ele>1649.22</ele><time>2026-07-14T20:00:54.000Z</time></trkpt>
        <trkpt lat="27.2853532" lon="103.2972343"><ele>1647.98</ele><time>2026-07-14T20:00:56.000Z</time></trkpt>
        <trkpt lat="27.2852826" lon="103.2971257"><ele>1646.89</ele><time>2026-07-14T20:00:58.000Z</time></trkpt>
        <trkpt lat="27.28519" lon="103.2970151"><ele>1645.84</ele><time>2026-07-14T20:01:00.000Z</time></trkpt>
        <trkpt lat="27.2851009" lon="103.2969048"><ele>1644.6</ele><time>2026-07-14T20:01:02.000Z</time></trkpt>
        <trkpt lat="27.2850109" lon="103.2967942"><ele>1643.57</ele><time>2026-07-14T20:01:06.000Z</time></trkpt>
        <trkpt lat="27.2849312" lon="103.2966777"><ele>1642.84</ele><time>2026-07-14T20:01:08.000Z</time></trkpt>
        <trkpt lat="27.2848365" lon="103.296526"><ele>1641.8</ele><time>2026-07-14T20:01:10.000Z</time></trkpt>
        <trkpt lat="27.2847436" lon="103.296336"><ele>1640.67</ele><time>2026-07-14T20:01:12.000Z</time></trkpt>
        <trkpt lat="27.2846655" lon="103.2961186"><ele>1639.59</ele><time>2026-07-14T20:01:14.000Z</time></trkpt>
        <trkpt lat="27.2846163" lon="103.2959072"><ele>1638.1</ele><time>2026-07-14T20:01:16.000Z</time></trkpt>
        <trkpt lat="27.2845846" lon="103.2957241"><ele>1636.58</ele><time>2026-07-14T20:01:18.000Z</time></trkpt>
        <trkpt lat="27.2845659" lon="103.2955563"><ele>1635.33</ele><time>2026-07-14T20:01:20.000Z</time></trkpt>
        <trkpt lat="27.284567" lon="103.2954008"><ele>1634.53</ele><time>2026-07-14T20:01:22.000Z</time></trkpt>
        <trkpt lat="27.2845657" lon="103.2952493"><ele>1633.73</ele><time>2026-07-14T20:01:24.000Z</time></trkpt>
        <trkpt lat="27.2845556" lon="103.2950985"><ele>1632.89</ele><time>2026-07-14T20:01:26.000Z</time></trkpt>
        <trkpt lat="27.2845072" lon="103.294964"><ele>1631.98</ele><time>2026-07-14T20:01:28.000Z</time></trkpt>
        <trkpt lat="27.2844479" lon="103.2948069"><ele>1631.18</ele><time>2026-07-14T20:01:30.000Z</time></trkpt>
        <trkpt lat="27.2843779" lon="103.2946229"><ele>1630.24</ele><time>2026-07-14T20:01:32.000Z</time></trkpt>
        <trkpt lat="27.2842857" lon="103.2944205"><ele>1629.02</ele><time>2026-07-14T20:01:34.000Z</time></trkpt>
        <trkpt lat="27.28416" lon="103.2942347"><ele>1627.48</ele><time>2026-07-14T20:01:36.000Z</time></trkpt>
        <trkpt lat="27.2840445" lon="103.2940825"><ele>1626.14</ele><time>2026-07-14T20:01:38.000Z</time></trkpt>
        <trkpt lat="27.2839494" lon="103.2939579"><ele>1624.79</ele><time>2026-07-14T20:01:40.000Z</time></trkpt>
        <trkpt lat="27.2838734" lon="103.2938146"><ele>1623.69</ele><time>2026-07-14T20:01:42.000Z</time></trkpt>
        <trkpt lat="27.2837841" lon="103.2936417"><ele>1622.35</ele><time>2026-07-14T20:01:44.000Z</time></trkpt>
        <trkpt lat="27.283688" lon="103.2934405"><ele>1620.64</ele><time>2026-07-14T20:01:46.000Z</time></trkpt>
        <trkpt lat="27.2835737" lon="103.2932338"><ele>1618.96</ele><time>2026-07-14T20:01:48.000Z</time></trkpt>
        <trkpt lat="27.2834338" lon="103.2930433"><ele>1617.34</ele><time>2026-07-14T20:01:50.000Z</time></trkpt>
        <trkpt lat="27.2832795" lon="103.2928621"><ele>1615.95</ele><time>2026-07-14T20:01:52.000Z</time></trkpt>
        <trkpt lat="27.2831271" lon="103.2926847"><ele>1614.59</ele><time>2026-07-14T20:01:54.000Z</time></trkpt>
        <trkpt lat="27.2829652" lon="103.2925177"><ele>1613.25</ele><time>2026-07-14T20:01:56.000Z</time></trkpt>
        <trkpt lat="27.282787" lon="103.2923642"><ele>1612.05</ele><time>2026-07-14T20:01:58.000Z</time></trkpt>
        <trkpt lat="27.282587" lon="103.2922408"><ele>1610.43</ele><time>2026-07-14T20:02:00.000Z</time></trkpt>
        <trkpt lat="27.2823892" lon="103.2921148"><ele>1609.04</ele><time>2026-07-14T20:02:02.000Z</time></trkpt>
        <trkpt lat="27.2821931" lon="103.2919787"><ele>1607.13</ele><time>2026-07-14T20:02:04.000Z</time></trkpt>
        <trkpt lat="27.281999" lon="103.2918269"><ele>1605.08</ele><time>2026-07-14T20:02:06.000Z</time></trkpt>
        <trkpt lat="27.2818228" lon="103.291655"><ele>1603.2</ele><time>2026-07-14T20:02:08.000Z</time></trkpt>
        <trkpt lat="27.2816789" lon="103.2914574"><ele>1601.25</ele><time>2026-07-14T20:02:10.000Z</time></trkpt>
        <trkpt lat="27.2815665" lon="103.2912495"><ele>1599.32</ele><time>2026-07-14T20:02:12.000Z</time></trkpt>
        <trkpt lat="27.2814619" lon="103.2910519"><ele>1597.24</ele><time>2026-07-14T20:02:14.000Z</time></trkpt>
        <trkpt lat="27.2813573" lon="103.2908718"><ele>1594.92</ele><time>2026-07-14T20:02:16.000Z</time></trkpt>
        <trkpt lat="27.2812188" lon="103.290704"><ele>1592.5</ele><time>2026-07-14T20:02:18.000Z</time></trkpt>
        <trkpt lat="27.2810736" lon="103.2905319"><ele>1589.89</ele><time>2026-07-14T20:02:20.000Z</time></trkpt>
        <trkpt lat="27.2809401" lon="103.2903661"><ele>1587.27</ele><time>2026-07-14T20:02:22.000Z</time></trkpt>
        <trkpt lat="27.2808079" lon="103.290193"><ele>1585.26</ele><time>2026-07-14T20:02:24.000Z</time></trkpt>
        <trkpt lat="27.2806766" lon="103.2899963"><ele>1583.35</ele><time>2026-07-14T20:02:26.000Z</time></trkpt>
        <trkpt lat="27.280548" lon="103.2897798"><ele>1581.45</ele><time>2026-07-14T20:02:28.000Z</time></trkpt>
        <trkpt lat="27.2804229" lon="103.2895331"><ele>1579.44</ele><time>2026-07-14T20:02:30.000Z</time></trkpt>
        <trkpt lat="27.2804229" lon="103.2895331"><ele>1579.44</ele><time>2026-07-14T20:02:31.000Z</time></trkpt>
      </trkseg>
      <trkseg>
        <trkpt lat="27.2839165" lon="103.2940726"><ele>1578.03</ele><time>2026-07-14T21:59:33.000Z</time></trkpt>
        <trkpt lat="27.2839165" lon="103.2940726"><ele>1578.03</ele><time>2026-07-14T21:59:35.000Z</time></trkpt>
        <trkpt lat="27.2838261" lon="103.2938546"><ele>1596.04</ele><time>2026-07-14T21:59:38.000Z</time></trkpt>
        <trkpt lat="27.2839104" lon="103.2939041"><ele>1607.06</ele><time>2026-07-14T22:00:42.000Z</time></trkpt>
        <trkpt lat="27.2839816" lon="103.2939671"><ele>1612.87</ele><time>2026-07-14T22:00:53.000Z</time></trkpt>
        <trkpt lat="27.2839825" lon="103.2940686"><ele>1615.46</ele><time>2026-07-14T22:02:02.000Z</time></trkpt>
        <trkpt lat="27.2840456" lon="103.2941442"><ele>1619.2</ele><time>2026-07-14T22:02:22.000Z</time></trkpt>
        <trkpt lat="27.2841118" lon="103.2942248"><ele>1622.08</ele><time>2026-07-14T22:02:36.000Z</time></trkpt>
        <trkpt lat="27.2842117" lon="103.2943555"><ele>1623.51</ele><time>2026-07-14T22:03:48.000Z</time></trkpt>
        <trkpt lat="27.2842761" lon="103.2944642"><ele>1623.1</ele><time>2026-07-14T22:03:50.000Z</time></trkpt>
        <trkpt lat="27.2843312" lon="103.2945954"><ele>1623.26</ele><time>2026-07-14T22:03:52.000Z</time></trkpt>
        <trkpt lat="27.2843808" lon="103.2947371"><ele>1623.89</ele><time>2026-07-14T22:03:54.000Z</time></trkpt>
        <trkpt lat="27.2844305" lon="103.2948818"><ele>1624.64</ele><time>2026-07-14T22:03:56.000Z</time></trkpt>
        <trkpt lat="27.2844883" lon="103.2950113"><ele>1625.84</ele><time>2026-07-14T22:03:58.000Z</time></trkpt>
        <trkpt lat="27.2845407" lon="103.2951205"><ele>1627.04</ele><time>2026-07-14T22:04:00.000Z</time></trkpt>
        <trkpt lat="27.2845644" lon="103.2952334"><ele>1628.05</ele><time>2026-07-14T22:04:02.000Z</time></trkpt>
        <trkpt lat="27.284577" lon="103.2953348"><ele>1629.45</ele><time>2026-07-14T22:04:06.000Z</time></trkpt>
        <trkpt lat="27.2845683" lon="103.2952757"><ele>1630.86</ele><time>2026-07-14T22:04:20.000Z</time></trkpt>
        <trkpt lat="27.2845486" lon="103.2952019"><ele>1632.14</ele><time>2026-07-14T22:04:29.000Z</time></trkpt>
        <trkpt lat="27.2845601" lon="103.2952555"><ele>1632.65</ele><time>2026-07-14T22:05:24.000Z</time></trkpt>
        <trkpt lat="27.2845465" lon="103.2953579"><ele>1631.55</ele><time>2026-07-14T22:05:36.000Z</time></trkpt>
        <trkpt lat="27.2845437" lon="103.2954773"><ele>1631.18</ele><time>2026-07-14T22:06:00.000Z</time></trkpt>
        <trkpt lat="27.2845179" lon="103.2955956"><ele>1631.3</ele><time>2026-07-14T22:06:12.000Z</time></trkpt>
        <trkpt lat="27.2845613" lon="103.2957276"><ele>1632.16</ele><time>2026-07-14T22:08:20.000Z</time></trkpt>
        <trkpt lat="27.2846276" lon="103.2959172"><ele>1632.04</ele><time>2026-07-14T22:08:24.000Z</time></trkpt>
        <trkpt lat="27.2846508" lon="103.2960435"><ele>1631.02</ele><time>2026-07-14T22:08:26.000Z</time></trkpt>
        <trkpt lat="27.2846595" lon="103.2961538"><ele>1630.41</ele><time>2026-07-14T22:08:28.000Z</time></trkpt>
        <trkpt lat="27.2846825" lon="103.2962597"><ele>1630.59</ele><time>2026-07-14T22:08:30.000Z</time></trkpt>
        <trkpt lat="27.2847159" lon="103.2963544"><ele>1630.96</ele><time>2026-07-14T22:08:32.000Z</time></trkpt>
        <trkpt lat="27.2847563" lon="103.2964475"><ele>1631.69</ele><time>2026-07-14T22:08:34.000Z</time></trkpt>
        <trkpt lat="27.2848041" lon="103.2965403"><ele>1632.31</ele><time>2026-07-14T22:08:36.000Z</time></trkpt>
        <trkpt lat="27.284891" lon="103.2966841"><ele>1632.66</ele><time>2026-07-14T22:08:40.000Z</time></trkpt>
        <trkpt lat="27.284971" lon="103.2968183"><ele>1633.63</ele><time>2026-07-14T22:08:44.000Z</time></trkpt>
        <trkpt lat="27.2850304" lon="103.296902"><ele>1634.34</ele><time>2026-07-14T22:08:50.000Z</time></trkpt>
        <trkpt lat="27.2850953" lon="103.2969705"><ele>1635.17</ele><time>2026-07-14T22:11:25.000Z</time></trkpt>
        <trkpt lat="27.285163" lon="103.2970378"><ele>1636.6</ele><time>2026-07-14T22:11:33.000Z</time></trkpt>
        <trkpt lat="27.2852273" lon="103.2971106"><ele>1638.78</ele><time>2026-07-14T22:11:41.000Z</time></trkpt>
        <trkpt lat="27.2852911" lon="103.297202"><ele>1640.95</ele><time>2026-07-14T22:11:51.000Z</time></trkpt>
        <trkpt lat="27.2853552" lon="103.2972956"><ele>1642.71</ele><time>2026-07-14T22:12:01.000Z</time></trkpt>
        <trkpt lat="27.285408" lon="103.2973968"><ele>1644.51</ele><time>2026-07-14T22:12:41.000Z</time></trkpt>
        <trkpt lat="27.2854494" lon="103.2974955"><ele>1646.03</ele><time>2026-07-14T22:12:51.000Z</time></trkpt>
        <trkpt lat="27.2854619" lon="103.2975829"><ele>1647.27</ele><time>2026-07-14T22:12:59.000Z</time></trkpt>
        <trkpt lat="27.2854752" lon="103.2976808"><ele>1648.03</ele><time>2026-07-14T22:13:13.000Z</time></trkpt>
        <trkpt lat="27.2855108" lon="103.2977767"><ele>1648.78</ele><time>2026-07-14T22:13:39.000Z</time></trkpt>
        <trkpt lat="27.28557" lon="103.2978034"><ele>1649.11</ele><time>2026-07-14T22:13:47.000Z</time></trkpt>
        <trkpt lat="27.2855384" lon="103.2978535"><ele>1648.35</ele><time>2026-07-14T22:14:09.000Z</time></trkpt>
        <trkpt lat="27.2855308" lon="103.297953"><ele>1649.59</ele><time>2026-07-14T22:14:53.000Z</time></trkpt>
        <trkpt lat="27.2855426" lon="103.2980825"><ele>1650.89</ele><time>2026-07-14T22:16:16.000Z</time></trkpt>
        <trkpt lat="27.2855343" lon="103.2980808"><ele>1651.11</ele><time>2026-07-14T22:16:20.000Z</time></trkpt>
        <trkpt lat="27.2856024" lon="103.2981204"><ele>1651.22</ele><time>2026-07-14T22:16:46.000Z</time></trkpt>
        <trkpt lat="27.2856168" lon="103.2982136"><ele>1652.11</ele><time>2026-07-14T22:17:16.000Z</time></trkpt>
        <trkpt lat="27.2856606" lon="103.2983475"><ele>1653.01</ele><time>2026-07-14T22:17:20.000Z</time></trkpt>
        <trkpt lat="27.2857044" lon="103.2984575"><ele>1653.37</ele><time>2026-07-14T22:17:22.000Z</time></trkpt>
        <trkpt lat="27.2857567" lon="103.2985689"><ele>1653.78</ele><time>2026-07-14T22:17:24.000Z</time></trkpt>
        <trkpt lat="27.2858126" lon="103.298683"><ele>1653.98</ele><time>2026-07-14T22:17:26.000Z</time></trkpt>
        <trkpt lat="27.2858717" lon="103.2987986"><ele>1654.24</ele><time>2026-07-14T22:17:28.000Z</time></trkpt>
        <trkpt lat="27.2859368" lon="103.2989089"><ele>1654.53</ele><time>2026-07-14T22:17:30.000Z</time></trkpt>
        <trkpt lat="27.2860041" lon="103.2990189"><ele>1655.22</ele><time>2026-07-14T22:17:32.000Z</time></trkpt>
        <trkpt lat="27.2860642" lon="103.2991301"><ele>1655.98</ele><time>2026-07-14T22:17:34.000Z</time></trkpt>
        <trkpt lat="27.2860978" lon="103.2992333"><ele>1657.06</ele><time>2026-07-14T22:17:36.000Z</time></trkpt>
        <trkpt lat="27.2861173" lon="103.2993328"><ele>1658.11</ele><time>2026-07-14T22:17:40.000Z</time></trkpt>
        <trkpt lat="27.28611" lon="103.2992745"><ele>1659.01</ele><time>2026-07-14T22:18:14.000Z</time></trkpt>
        <trkpt lat="27.2860942" lon="103.2992"><ele>1661.39</ele><time>2026-07-14T22:18:22.000Z</time></trkpt>
        <trkpt lat="27.2860885" lon="103.2992717"><ele>1662.66</ele><time>2026-07-14T22:19:50.000Z</time></trkpt>
        <trkpt lat="27.2861198" lon="103.2993819"><ele>1665.22</ele><time>2026-07-14T22:20:04.000Z</time></trkpt>
        <trkpt lat="27.2861436" lon="103.2994945"><ele>1666.48</ele><time>2026-07-14T22:21:13.000Z</time></trkpt>
        <trkpt lat="27.2861986" lon="103.2995362"><ele>1665.07</ele><time>2026-07-14T22:21:23.000Z</time></trkpt>
        <trkpt lat="27.2861691" lon="103.2994678"><ele>1664.54</ele><time>2026-07-14T22:21:53.000Z</time></trkpt>
        <trkpt lat="27.286153" lon="103.2995288"><ele>1665.21</ele><time>2026-07-14T22:22:35.000Z</time></trkpt>
        <trkpt lat="27.2861679" lon="103.2997614"><ele>1665.17</ele><time>2026-07-14T22:23:01.000Z</time></trkpt>
        <trkpt lat="27.2861821" lon="103.2999336"><ele>1665.84</ele><time>2026-07-14T22:23:03.000Z</time></trkpt>
        <trkpt lat="27.2861954" lon="103.3000685"><ele>1666.34</ele><time>2026-07-14T22:23:05.000Z</time></trkpt>
        <trkpt lat="27.2862101" lon="103.3001898"><ele>1667.55</ele><time>2026-07-14T22:23:07.000Z</time></trkpt>
        <trkpt lat="27.2862656" lon="103.3003518"><ele>1668.71</ele><time>2026-07-14T22:23:11.000Z</time></trkpt>
        <trkpt lat="27.2863145" lon="103.300467"><ele>1669.23</ele><time>2026-07-14T22:23:13.000Z</time></trkpt>
        <trkpt lat="27.286355" lon="103.3005689"><ele>1669.98</ele><time>2026-07-14T22:23:15.000Z</time></trkpt>
        <trkpt lat="27.2863876" lon="103.3006803"><ele>1671.15</ele><time>2026-07-14T22:23:17.000Z</time></trkpt>
        <trkpt lat="27.2864116" lon="103.3008066"><ele>1672.36</ele><time>2026-07-14T22:23:19.000Z</time></trkpt>
        <trkpt lat="27.2864426" lon="103.3009405"><ele>1673.57</ele><time>2026-07-14T22:23:21.000Z</time></trkpt>
        <trkpt lat="27.2864974" lon="103.3010881"><ele>1675.19</ele><time>2026-07-14T22:23:23.000Z</time></trkpt>
        <trkpt lat="27.2865526" lon="103.3012417"><ele>1676.23</ele><time>2026-07-14T22:23:25.000Z</time></trkpt>
        <trkpt lat="27.2866043" lon="103.3014014"><ele>1677.35</ele><time>2026-07-14T22:23:27.000Z</time></trkpt>
        <trkpt lat="27.2866364" lon="103.3015699"><ele>1678.63</ele><time>2026-07-14T22:23:29.000Z</time></trkpt>
        <trkpt lat="27.2866585" lon="103.3017425"><ele>1680.15</ele><time>2026-07-14T22:23:31.000Z</time></trkpt>
        <trkpt lat="27.2866831" lon="103.3019148"><ele>1681.9</ele><time>2026-07-14T22:23:33.000Z</time></trkpt>
        <trkpt lat="27.2867131" lon="103.3020864"><ele>1683.78</ele><time>2026-07-14T22:23:35.000Z</time></trkpt>
        <trkpt lat="27.2867363" lon="103.3022315"><ele>1685.49</ele><time>2026-07-14T22:23:37.000Z</time></trkpt>
        <trkpt lat="27.2867532" lon="103.3023573"><ele>1686.86</ele><time>2026-07-14T22:23:41.000Z</time></trkpt>
        <trkpt lat="27.2867698" lon="103.3024804"><ele>1687.97</ele><time>2026-07-14T22:23:47.000Z</time></trkpt>
        <trkpt lat="27.2867802" lon="103.3025856"><ele>1689.06</ele><time>2026-07-14T22:23:51.000Z</time></trkpt>
        <trkpt lat="27.2867802" lon="103.3026861"><ele>1689.86</ele><time>2026-07-14T22:23:59.000Z</time></trkpt>
        <trkpt lat="27.2867764" lon="103.3027142"><ele>1690.63</ele><time>2026-07-14T22:24:01.000Z</time></trkpt>
        <trkpt lat="27.2867831" lon="103.302634"><ele>1691.12</ele><time>2026-07-14T22:24:17.000Z</time></trkpt>
        <trkpt lat="27.2867713" lon="103.3026728"><ele>1691.37</ele><time>2026-07-14T22:24:53.000Z</time></trkpt>
        <trkpt lat="27.2867702" lon="103.3028379"><ele>1690.12</ele><time>2026-07-14T22:25:07.000Z</time></trkpt>
        <trkpt lat="27.28677" lon="103.3029766"><ele>1689.23</ele><time>2026-07-14T22:25:09.000Z</time></trkpt>
        <trkpt lat="27.2867695" lon="103.3030972"><ele>1689.53</ele><time>2026-07-14T22:25:11.000Z</time></trkpt>
        <trkpt lat="27.2867676" lon="103.3032166"><ele>1690.23</ele><time>2026-07-14T22:25:13.000Z</time></trkpt>
        <trkpt lat="27.2867681" lon="103.3033423"><ele>1691.88</ele><time>2026-07-14T22:25:15.000Z</time></trkpt>
        <trkpt lat="27.2867729" lon="103.3034721"><ele>1693.04</ele><time>2026-07-14T22:25:17.000Z</time></trkpt>
        <trkpt lat="27.2867865" lon="103.3036084"><ele>1694.05</ele><time>2026-07-14T22:25:19.000Z</time></trkpt>
        <trkpt lat="27.2868039" lon="103.3037445"><ele>1694.78</ele><time>2026-07-14T22:25:21.000Z</time></trkpt>
        <trkpt lat="27.2868188" lon="103.3038789"><ele>1695.21</ele><time>2026-07-14T22:25:23.000Z</time></trkpt>
        <trkpt lat="27.2868245" lon="103.3040033"><ele>1695.75</ele><time>2026-07-14T22:25:25.000Z</time></trkpt>
        <trkpt lat="27.2868407" lon="103.3041281"><ele>1696.92</ele><time>2026-07-14T22:25:27.000Z</time></trkpt>
        <trkpt lat="27.2868545" lon="103.3042533"><ele>1698.35</ele><time>2026-07-14T22:25:29.000Z</time></trkpt>
        <trkpt lat="27.2868864" lon="103.3043807"><ele>1699.1</ele><time>2026-07-14T22:25:31.000Z</time></trkpt>
        <trkpt lat="27.2869348" lon="103.3045257"><ele>1699.39</ele><time>2026-07-14T22:25:33.000Z</time></trkpt>
        <trkpt lat="27.2869711" lon="103.3046726"><ele>1698.69</ele><time>2026-07-14T22:25:35.000Z</time></trkpt>
        <trkpt lat="27.2870013" lon="103.3048254"><ele>1698.58</ele><time>2026-07-14T22:25:37.000Z</time></trkpt>
        <trkpt lat="27.2870336" lon="103.3049833"><ele>1699.13</ele><time>2026-07-14T22:25:39.000Z</time></trkpt>
        <trkpt lat="27.2870719" lon="103.3051358"><ele>1699.65</ele><time>2026-07-14T22:25:41.000Z</time></trkpt>
        <trkpt lat="27.2871267" lon="103.3052672"><ele>1700.27</ele><time>2026-07-14T22:25:43.000Z</time></trkpt>
        <trkpt lat="27.2872122" lon="103.3053742"><ele>1700.7</ele><time>2026-07-14T22:25:45.000Z</time></trkpt>
        <trkpt lat="27.2873075" lon="103.3054472"><ele>1701.05</ele><time>2026-07-14T22:25:47.000Z</time></trkpt>
        <trkpt lat="27.2873882" lon="103.3055185"><ele>1701.1</ele><time>2026-07-14T22:25:49.000Z</time></trkpt>
        <trkpt lat="27.2874392" lon="103.3056154"><ele>1700.65</ele><time>2026-07-14T22:25:51.000Z</time></trkpt>
        <trkpt lat="27.2874607" lon="103.3057335"><ele>1700.66</ele><time>2026-07-14T22:25:53.000Z</time></trkpt>
        <trkpt lat="27.2874597" lon="103.3058487"><ele>1700.76</ele><time>2026-07-14T22:25:55.000Z</time></trkpt>
        <trkpt lat="27.2874384" lon="103.3060108"><ele>1700.84</ele><time>2026-07-14T22:25:59.000Z</time></trkpt>
        <trkpt lat="27.2874171" lon="103.3061914"><ele>1701.28</ele><time>2026-07-14T22:26:03.000Z</time></trkpt>
        <trkpt lat="27.2873979" lon="103.3063265"><ele>1701.96</ele><time>2026-07-14T22:26:05.000Z</time></trkpt>
        <trkpt lat="27.2873812" lon="103.3064521"><ele>1702.37</ele><time>2026-07-14T22:26:07.000Z</time></trkpt>
        <trkpt lat="27.287367" lon="103.3065626"><ele>1702.76</ele><time>2026-07-14T22:26:09.000Z</time></trkpt>
        <trkpt lat="27.2873561" lon="103.3066646"><ele>1703.51</ele><time>2026-07-14T22:26:11.000Z</time></trkpt>
        <trkpt lat="27.2873351" lon="103.3068458"><ele>1704.12</ele><time>2026-07-14T22:26:15.000Z</time></trkpt>
        <trkpt lat="27.2873146" lon="103.306993"><ele>1705.84</ele><time>2026-07-14T22:26:17.000Z</time></trkpt>
        <trkpt lat="27.2872963" lon="103.3071389"><ele>1706.94</ele><time>2026-07-14T22:26:19.000Z</time></trkpt>
        <trkpt lat="27.2872988" lon="103.3072881"><ele>1707.86</ele><time>2026-07-14T22:26:21.000Z</time></trkpt>
        <trkpt lat="27.2873316" lon="103.3074389"><ele>1708.53</ele><time>2026-07-14T22:26:23.000Z</time></trkpt>
        <trkpt lat="27.2873682" lon="103.3075925"><ele>1709.12</ele><time>2026-07-14T22:26:25.000Z</time></trkpt>
        <trkpt lat="27.2874028" lon="103.3077099"><ele>1709.82</ele><time>2026-07-14T22:26:29.000Z</time></trkpt>
        <trkpt lat="27.2874016" lon="103.307595"><ele>1710.6</ele><time>2026-07-14T22:27:50.000Z</time></trkpt>
        <trkpt lat="27.2873904" lon="103.3077069"><ele>1712.03</ele><time>2026-07-14T22:28:26.000Z</time></trkpt>
        <trkpt lat="27.287423" lon="103.3078446"><ele>1712.29</ele><time>2026-07-14T22:28:44.000Z</time></trkpt>
        <trkpt lat="27.28746" lon="103.3080089"><ele>1713.02</ele><time>2026-07-14T22:28:48.000Z</time></trkpt>
        <trkpt lat="27.2874987" lon="103.3081902"><ele>1714.19</ele><time>2026-07-14T22:28:52.000Z</time></trkpt>
        <trkpt lat="27.2875291" lon="103.3083212"><ele>1715.15</ele><time>2026-07-14T22:28:54.000Z</time></trkpt>
        <trkpt lat="27.2875589" lon="103.3084402"><ele>1716.14</ele><time>2026-07-14T22:28:56.000Z</time></trkpt>
        <trkpt lat="27.2875987" lon="103.3085611"><ele>1717.05</ele><time>2026-07-14T22:28:58.000Z</time></trkpt>
        <trkpt lat="27.2876467" lon="103.3086812"><ele>1718.02</ele><time>2026-07-14T22:29:00.000Z</time></trkpt>
        <trkpt lat="27.2877104" lon="103.3087941"><ele>1718.98</ele><time>2026-07-14T22:29:02.000Z</time></trkpt>
        <trkpt lat="27.2877861" lon="103.3089013"><ele>1719.54</ele><time>2026-07-14T22:29:04.000Z</time></trkpt>
        <trkpt lat="27.287866" lon="103.3090169"><ele>1720.13</ele><time>2026-07-14T22:29:06.000Z</time></trkpt>
        <trkpt lat="27.2879467" lon="103.3091415"><ele>1720.6</ele><time>2026-07-14T22:29:08.000Z</time></trkpt>
        <trkpt lat="27.2880246" lon="103.3092653"><ele>1721.07</ele><time>2026-07-14T22:29:10.000Z</time></trkpt>
        <trkpt lat="27.2881024" lon="103.3093851"><ele>1721.86</ele><time>2026-07-14T22:29:12.000Z</time></trkpt>
        <trkpt lat="27.288177" lon="103.3095067"><ele>1722.58</ele><time>2026-07-14T22:29:14.000Z</time></trkpt>
        <trkpt lat="27.2882553" lon="103.3096351"><ele>1723.25</ele><time>2026-07-14T22:29:16.000Z</time></trkpt>
        <trkpt lat="27.2883311" lon="103.3097689"><ele>1723.62</ele><time>2026-07-14T22:29:18.000Z</time></trkpt>
        <trkpt lat="27.2884122" lon="103.3098828"><ele>1723.77</ele><time>2026-07-14T22:29:20.000Z</time></trkpt>
        <trkpt lat="27.2885238" lon="103.3099191"><ele>1724.06</ele><time>2026-07-14T22:29:22.000Z</time></trkpt>
        <trkpt lat="27.2886336" lon="103.3098615"><ele>1724.47</ele><time>2026-07-14T22:29:24.000Z</time></trkpt>
        <trkpt lat="27.288685" lon="103.3097456"><ele>1725.02</ele><time>2026-07-14T22:29:26.000Z</time></trkpt>
        <trkpt lat="27.2886508" lon="103.3095902"><ele>1725.73</ele><time>2026-07-14T22:29:30.000Z</time></trkpt>
        <trkpt lat="27.288567" lon="103.3094396"><ele>1726.45</ele><time>2026-07-14T22:29:34.000Z</time></trkpt>
        <trkpt lat="27.2884585" lon="103.3092593"><ele>1726.52</ele><time>2026-07-14T22:29:38.000Z</time></trkpt>
        <trkpt lat="27.2883649" lon="103.3091251"><ele>1726.45</ele><time>2026-07-14T22:29:40.000Z</time></trkpt>
        <trkpt lat="27.2882817" lon="103.3090022"><ele>1726.26</ele><time>2026-07-14T22:29:42.000Z</time></trkpt>
        <trkpt lat="27.2882" lon="103.3088792"><ele>1726.32</ele><time>2026-07-14T22:29:44.000Z</time></trkpt>
        <trkpt lat="27.2881178" lon="103.3087489"><ele>1726.8</ele><time>2026-07-14T22:29:46.000Z</time></trkpt>
        <trkpt lat="27.2880353" lon="103.3086199"><ele>1727.04</ele><time>2026-07-14T22:29:48.000Z</time></trkpt>
        <trkpt lat="27.287955" lon="103.308496"><ele>1727.37</ele><time>2026-07-14T22:29:50.000Z</time></trkpt>
        <trkpt lat="27.2878866" lon="103.3083644"><ele>1728.21</ele><time>2026-07-14T22:29:52.000Z</time></trkpt>
        <trkpt lat="27.2878401" lon="103.3082149"><ele>1728.86</ele><time>2026-07-14T22:29:54.000Z</time></trkpt>
        <trkpt lat="27.2878098" lon="103.308048"><ele>1729.22</ele><time>2026-07-14T22:29:56.000Z</time></trkpt>
        <trkpt lat="27.2877873" lon="103.3078744"><ele>1729.59</ele><time>2026-07-14T22:29:58.000Z</time></trkpt>
        <trkpt lat="27.2877616" lon="103.3077058"><ele>1730.04</ele><time>2026-07-14T22:30:00.000Z</time></trkpt>
        <trkpt lat="27.2877282" lon="103.3075405"><ele>1730.16</ele><time>2026-07-14T22:30:02.000Z</time></trkpt>
        <trkpt lat="27.2876817" lon="103.3073768"><ele>1730.26</ele><time>2026-07-14T22:30:04.000Z</time></trkpt>
        <trkpt lat="27.2876515" lon="103.3072125"><ele>1730.33</ele><time>2026-07-14T22:30:06.000Z</time></trkpt>
        <trkpt lat="27.2876522" lon="103.3070424"><ele>1730.38</ele><time>2026-07-14T22:30:08.000Z</time></trkpt>
        <trkpt lat="27.2876814" lon="103.3068716"><ele>1730.66</ele><time>2026-07-14T22:30:10.000Z</time></trkpt>
        <trkpt lat="27.2877197" lon="103.3066981"><ele>1730.86</ele><time>2026-07-14T22:30:12.000Z</time></trkpt>
        <trkpt lat="27.2877576" lon="103.3065035"><ele>1731.71</ele><time>2026-07-14T22:30:15.000Z</time></trkpt>
        <trkpt lat="27.2877981" lon="103.3062378"><ele>1732.66</ele><time>2026-07-14T22:30:18.000Z</time></trkpt>
        <trkpt lat="27.2878251" lon="103.3060458"><ele>1733.82</ele><time>2026-07-14T22:30:20.000Z</time></trkpt>
        <trkpt lat="27.2878382" lon="103.3058766"><ele>1734.43</ele><time>2026-07-14T22:30:22.000Z</time></trkpt>
        <trkpt lat="27.2878282" lon="103.3057141"><ele>1735</ele><time>2026-07-14T22:30:24.000Z</time></trkpt>
        <trkpt lat="27.2877892" lon="103.3055627"><ele>1735.05</ele><time>2026-07-14T22:30:26.000Z</time></trkpt>
        <trkpt lat="27.2877263" lon="103.3054215"><ele>1734.8</ele><time>2026-07-14T22:30:28.000Z</time></trkpt>
        <trkpt lat="27.2876634" lon="103.305297"><ele>1734.38</ele><time>2026-07-14T22:30:30.000Z</time></trkpt>
        <trkpt lat="27.2876033" lon="103.3051631"><ele>1733.49</ele><time>2026-07-14T22:30:32.000Z</time></trkpt>
        <trkpt lat="27.2875563" lon="103.3050095"><ele>1733.14</ele><time>2026-07-14T22:30:34.000Z</time></trkpt>
        <trkpt lat="27.2875321" lon="103.3048543"><ele>1732.54</ele><time>2026-07-14T22:30:36.000Z</time></trkpt>
        <trkpt lat="27.2875353" lon="103.3046898"><ele>1732.21</ele><time>2026-07-14T22:30:38.000Z</time></trkpt>
        <trkpt lat="27.287555" lon="103.3045256"><ele>1732.03</ele><time>2026-07-14T22:30:40.000Z</time></trkpt>
        <trkpt lat="27.2875769" lon="103.3043571"><ele>1732.38</ele><time>2026-07-14T22:30:42.000Z</time></trkpt>
        <trkpt lat="27.2875977" lon="103.3041939"><ele>1732.23</ele><time>2026-07-14T22:30:44.000Z</time></trkpt>
        <trkpt lat="27.2876127" lon="103.3040243"><ele>1732.27</ele><time>2026-07-14T22:30:46.000Z</time></trkpt>
        <trkpt lat="27.2876057" lon="103.3038527"><ele>1732.46</ele><time>2026-07-14T22:30:48.000Z</time></trkpt>
        <trkpt lat="27.287576" lon="103.3036693"><ele>1733</ele><time>2026-07-14T22:30:50.000Z</time></trkpt>
        <trkpt lat="27.2875442" lon="103.3034782"><ele>1733.96</ele><time>2026-07-14T22:30:52.000Z</time></trkpt>
        <trkpt lat="27.2875303" lon="103.3032932"><ele>1734.81</ele><time>2026-07-14T22:30:54.000Z</time></trkpt>
        <trkpt lat="27.2875311" lon="103.3031197"><ele>1735.09</ele><time>2026-07-14T22:30:56.000Z</time></trkpt>
        <trkpt lat="27.2875306" lon="103.3029412"><ele>1735.64</ele><time>2026-07-14T22:30:58.000Z</time></trkpt>
        <trkpt lat="27.2875268" lon="103.3027661"><ele>1736.1</ele><time>2026-07-14T22:31:00.000Z</time></trkpt>
        <trkpt lat="27.2875357" lon="103.3026012"><ele>1737.02</ele><time>2026-07-14T22:31:02.000Z</time></trkpt>
        <trkpt lat="27.287535" lon="103.3024528"><ele>1737.42</ele><time>2026-07-14T22:31:04.000Z</time></trkpt>
        <trkpt lat="27.2875263" lon="103.3023069"><ele>1737.88</ele><time>2026-07-14T22:31:08.000Z</time></trkpt>
        <trkpt lat="27.2875174" lon="103.3021615"><ele>1738.66</ele><time>2026-07-14T22:31:12.000Z</time></trkpt>
        <trkpt lat="27.2875108" lon="103.3020352"><ele>1739.66</ele><time>2026-07-14T22:31:14.000Z</time></trkpt>
        <trkpt lat="27.287508" lon="103.3018994"><ele>1740.52</ele><time>2026-07-14T22:31:16.000Z</time></trkpt>
        <trkpt lat="27.2875054" lon="103.3017593"><ele>1741.04</ele><time>2026-07-14T22:31:18.000Z</time></trkpt>
        <trkpt lat="27.2875067" lon="103.3016257"><ele>1741.49</ele><time>2026-07-14T22:31:20.000Z</time></trkpt>
        <trkpt lat="27.2874996" lon="103.3015054"><ele>1741.2</ele><time>2026-07-14T22:31:22.000Z</time></trkpt>
        <trkpt lat="27.2874805" lon="103.3013795"><ele>1741.25</ele><time>2026-07-14T22:31:24.000Z</time></trkpt>
        <trkpt lat="27.2874523" lon="103.3012469"><ele>1741.2</ele><time>2026-07-14T22:31:26.000Z</time></trkpt>
        <trkpt lat="27.2874199" lon="103.3011026"><ele>1741.78</ele><time>2026-07-14T22:31:28.000Z</time></trkpt>
        <trkpt lat="27.2874018" lon="103.3009605"><ele>1742.31</ele><time>2026-07-14T22:31:30.000Z</time></trkpt>
        <trkpt lat="27.2874361" lon="103.3008441"><ele>1743.68</ele><time>2026-07-14T22:31:32.000Z</time></trkpt>
        <trkpt lat="27.2875203" lon="103.3008023"><ele>1745.25</ele><time>2026-07-14T22:31:34.000Z</time></trkpt>
        <trkpt lat="27.287589" lon="103.3008759"><ele>1746.53</ele><time>2026-07-14T22:31:36.000Z</time></trkpt>
        <trkpt lat="27.2876338" lon="103.3010051"><ele>1747.12</ele><time>2026-07-14T22:31:38.000Z</time></trkpt>
        <trkpt lat="27.287676" lon="103.3011648"><ele>1748.34</ele><time>2026-07-14T22:31:40.000Z</time></trkpt>
        <trkpt lat="27.2877161" lon="103.3013309"><ele>1749.42</ele><time>2026-07-14T22:31:42.000Z</time></trkpt>
        <trkpt lat="27.2877483" lon="103.3015013"><ele>1749.67</ele><time>2026-07-14T22:31:44.000Z</time></trkpt>
        <trkpt lat="27.2877764" lon="103.3016793"><ele>1750.07</ele><time>2026-07-14T22:31:46.000Z</time></trkpt>
        <trkpt lat="27.2877912" lon="103.3018586"><ele>1751.2</ele><time>2026-07-14T22:31:48.000Z</time></trkpt>
        <trkpt lat="27.2877958" lon="103.3020351"><ele>1752.49</ele><time>2026-07-14T22:31:50.000Z</time></trkpt>
        <trkpt lat="27.2878107" lon="103.3021954"><ele>1754.09</ele><time>2026-07-14T22:31:52.000Z</time></trkpt>
        <trkpt lat="27.2878318" lon="103.302345"><ele>1755.93</ele><time>2026-07-14T22:31:54.000Z</time></trkpt>
        <trkpt lat="27.2878526" lon="103.3024928"><ele>1757.19</ele><time>2026-07-14T22:31:56.000Z</time></trkpt>
        <trkpt lat="27.2878809" lon="103.3026488"><ele>1758.1</ele><time>2026-07-14T22:31:58.000Z</time></trkpt>
        <trkpt lat="27.2879218" lon="103.3028167"><ele>1758.78</ele><time>2026-07-14T22:32:00.000Z</time></trkpt>
        <trkpt lat="27.2879855" lon="103.3029854"><ele>1760.01</ele><time>2026-07-14T22:32:02.000Z</time></trkpt>
        <trkpt lat="27.2880603" lon="103.3031341"><ele>1761.68</ele><time>2026-07-14T22:32:04.000Z</time></trkpt>
        <trkpt lat="27.2881167" lon="103.3032809"><ele>1763.24</ele><time>2026-07-14T22:32:06.000Z</time></trkpt>
        <trkpt lat="27.2881752" lon="103.3034335"><ele>1764.43</ele><time>2026-07-14T22:32:08.000Z</time></trkpt>
        <trkpt lat="27.2882521" lon="103.3035839"><ele>1765.49</ele><time>2026-07-14T22:32:10.000Z</time></trkpt>
        <trkpt lat="27.2883444" lon="103.3037304"><ele>1766.48</ele><time>2026-07-14T22:32:12.000Z</time></trkpt>
        <trkpt lat="27.2884435" lon="103.3038861"><ele>1767.13</ele><time>2026-07-14T22:32:14.000Z</time></trkpt>
        <trkpt lat="27.2885343" lon="103.3040475"><ele>1767.46</ele><time>2026-07-14T22:32:16.000Z</time></trkpt>
        <trkpt lat="27.2886214" lon="103.3042111"><ele>1767.87</ele><time>2026-07-14T22:32:18.000Z</time></trkpt>
        <trkpt lat="27.2886994" lon="103.3043769"><ele>1768.65</ele><time>2026-07-14T22:32:20.000Z</time></trkpt>
        <trkpt lat="27.2887671" lon="103.3045371"><ele>1769.5</ele><time>2026-07-14T22:32:22.000Z</time></trkpt>
        <trkpt lat="27.2888237" lon="103.3046954"><ele>1770.69</ele><time>2026-07-14T22:32:24.000Z</time></trkpt>
        <trkpt lat="27.2888674" lon="103.3048526"><ele>1771.55</ele><time>2026-07-14T22:32:26.000Z</time></trkpt>
        <trkpt lat="27.2889101" lon="103.3050151"><ele>1772.78</ele><time>2026-07-14T22:32:28.000Z</time></trkpt>
        <trkpt lat="27.288958" lon="103.3051799"><ele>1774.27</ele><time>2026-07-14T22:32:30.000Z</time></trkpt>
        <trkpt lat="27.2890073" lon="103.3053455"><ele>1776.2</ele><time>2026-07-14T22:32:32.000Z</time></trkpt>
        <trkpt lat="27.2890575" lon="103.3055157"><ele>1778.2</ele><time>2026-07-14T22:32:34.000Z</time></trkpt>
        <trkpt lat="27.2890749" lon="103.3056738"><ele>1779.91</ele><time>2026-07-14T22:32:36.000Z</time></trkpt>
        <trkpt lat="27.2890939" lon="103.3058323"><ele>1781.08</ele><time>2026-07-14T22:32:38.000Z</time></trkpt>
        <trkpt lat="27.2891308" lon="103.3059735"><ele>1782.84</ele><time>2026-07-14T22:32:40.000Z</time></trkpt>
        <trkpt lat="27.2891993" lon="103.3060875"><ele>1785.15</ele><time>2026-07-14T22:32:42.000Z</time></trkpt>
        <trkpt lat="27.2892872" lon="103.3061668"><ele>1786.47</ele><time>2026-07-14T22:32:44.000Z</time></trkpt>
        <trkpt lat="27.2892872" lon="103.3061668"><ele>1786.47</ele><time>2026-07-14T22:32:45.000Z</time></trkpt>
      </trkseg>
  </trk>
</gpx>